<?xml version="1.0" encoding="UTF-8" standalone="no" ?>
<gpx xmlns="http://www.topografix.com/GPX/1/1" xmlns:xsi="http://www.w3.org/2001/XMLSchema-instance" xsi:schemaLocation="http://www.topografix.com/GPX/1/1 http://www.topografix.com/GPX/1/1/gpx.xsd" version="1.1" creator="VisuGPX - https://www.visugpx.com">
  <metadata>
    <name>Circuits de la Couronne d'Or 30 km</name>
    <desc><![CDATA[Circuits de la Couronne d'Or du 27 août 2017 - Parcours de 30 km]]></desc>
  </metadata>
  <trk>
    <name><![CDATA[CO 30km 2017]]></name>
    <trkseg>
      <trkpt lat="48.6191" lon="7.49064">
        <ele>286.61</ele>
        <time>2017-04-16T07:12:51Z</time>
      </trkpt>
      <trkpt lat="48.6191" lon="7.49065">
        <ele>193.84</ele>
        <time>2017-04-16T07:12:52Z</time>
      </trkpt>
      <trkpt lat="48.6191" lon="7.49065">
        <ele>193.84</ele>
        <time>2017-04-16T07:12:53Z</time>
      </trkpt>
      <trkpt lat="48.61904" lon="7.4907">
        <ele>193.84</ele>
        <time>2017-04-16T07:13:06Z</time>
      </trkpt>
      <trkpt lat="48.61866" lon="7.49083">
        <ele>192.88</ele>
        <time>2017-04-16T07:13:21Z</time>
      </trkpt>
      <trkpt lat="48.61849" lon="7.49086">
        <ele>193.36</ele>
        <time>2017-04-16T07:13:25Z</time>
      </trkpt>
      <trkpt lat="48.61844" lon="7.49085">
        <ele>193.36</ele>
        <time>2017-04-16T07:13:26Z</time>
      </trkpt>
      <trkpt lat="48.61786" lon="7.49062">
        <ele>191.44</ele>
        <time>2017-04-16T07:13:37Z</time>
      </trkpt>
      <trkpt lat="48.61747" lon="7.49045">
        <ele>191.44</ele>
        <time>2017-04-16T07:13:44Z</time>
      </trkpt>
      <trkpt lat="48.61743" lon="7.49039">
        <ele>191.44</ele>
        <time>2017-04-16T07:13:45Z</time>
      </trkpt>
      <trkpt lat="48.61743" lon="7.49031">
        <ele>191.92</ele>
        <time>2017-04-16T07:13:46Z</time>
      </trkpt>
      <trkpt lat="48.61744" lon="7.49024">
        <ele>191.44</ele>
        <time>2017-04-16T07:13:47Z</time>
      </trkpt>
      <trkpt lat="48.61746" lon="7.49017">
        <ele>191.44</ele>
        <time>2017-04-16T07:13:48Z</time>
      </trkpt>
      <trkpt lat="48.61756" lon="7.48974">
        <ele>191.44</ele>
        <time>2017-04-16T07:13:54Z</time>
      </trkpt>
      <trkpt lat="48.61905" lon="7.48376">
        <ele>192.88</ele>
        <time>2017-04-16T07:15:20Z</time>
      </trkpt>
      <trkpt lat="48.61908" lon="7.48369">
        <ele>192.4</ele>
        <time>2017-04-16T07:15:21Z</time>
      </trkpt>
      <trkpt lat="48.61911" lon="7.48363">
        <ele>192.88</ele>
        <time>2017-04-16T07:15:22Z</time>
      </trkpt>
      <trkpt lat="48.61914" lon="7.48357">
        <ele>192.88</ele>
        <time>2017-04-16T07:15:23Z</time>
      </trkpt>
      <trkpt lat="48.61918" lon="7.48352">
        <ele>192.4</ele>
        <time>2017-04-16T07:15:24Z</time>
      </trkpt>
      <trkpt lat="48.61922" lon="7.48347">
        <ele>192.88</ele>
        <time>2017-04-16T07:15:25Z</time>
      </trkpt>
      <trkpt lat="48.61925" lon="7.48342">
        <ele>192.88</ele>
        <time>2017-04-16T07:15:26Z</time>
      </trkpt>
      <trkpt lat="48.61928" lon="7.48336">
        <ele>192.88</ele>
        <time>2017-04-16T07:15:27Z</time>
      </trkpt>
      <trkpt lat="48.6193" lon="7.48329">
        <ele>192.88</ele>
        <time>2017-04-16T07:15:28Z</time>
      </trkpt>
      <trkpt lat="48.61968" lon="7.48187">
        <ele>193.36</ele>
        <time>2017-04-16T07:15:49Z</time>
      </trkpt>
      <trkpt lat="48.62044" lon="7.47897">
        <ele>195.77</ele>
        <time>2017-04-16T07:16:31Z</time>
      </trkpt>
      <trkpt lat="48.62046" lon="7.47883">
        <ele>195.28</ele>
        <time>2017-04-16T07:16:33Z</time>
      </trkpt>
      <trkpt lat="48.62047" lon="7.47875">
        <ele>195.28</ele>
        <time>2017-04-16T07:16:34Z</time>
      </trkpt>
      <trkpt lat="48.62046" lon="7.47868">
        <ele>195.28</ele>
        <time>2017-04-16T07:16:35Z</time>
      </trkpt>
      <trkpt lat="48.62044" lon="7.4786">
        <ele>195.28</ele>
        <time>2017-04-16T07:16:36Z</time>
      </trkpt>
      <trkpt lat="48.62042" lon="7.47853">
        <ele>195.77</ele>
        <time>2017-04-16T07:16:37Z</time>
      </trkpt>
      <trkpt lat="48.62006" lon="7.4771">
        <ele>195.28</ele>
        <time>2017-04-16T07:16:55Z</time>
      </trkpt>
      <trkpt lat="48.61984" lon="7.47623">
        <ele>195.28</ele>
        <time>2017-04-16T07:17:06Z</time>
      </trkpt>
      <trkpt lat="48.61981" lon="7.47617">
        <ele>195.28</ele>
        <time>2017-04-16T07:17:07Z</time>
      </trkpt>
      <trkpt lat="48.61976" lon="7.47613">
        <ele>195.28</ele>
        <time>2017-04-16T07:17:08Z</time>
      </trkpt>
      <trkpt lat="48.61971" lon="7.47611">
        <ele>195.77</ele>
        <time>2017-04-16T07:17:09Z</time>
      </trkpt>
      <trkpt lat="48.61965" lon="7.4761">
        <ele>195.28</ele>
        <time>2017-04-16T07:17:10Z</time>
      </trkpt>
      <trkpt lat="48.6196" lon="7.47609">
        <ele>195.77</ele>
        <time>2017-04-16T07:17:11Z</time>
      </trkpt>
      <trkpt lat="48.61944" lon="7.47603">
        <ele>195.28</ele>
        <time>2017-04-16T07:17:14Z</time>
      </trkpt>
      <trkpt lat="48.61939" lon="7.476">
        <ele>195.28</ele>
        <time>2017-04-16T07:17:15Z</time>
      </trkpt>
      <trkpt lat="48.61935" lon="7.47595">
        <ele>195.28</ele>
        <time>2017-04-16T07:17:16Z</time>
      </trkpt>
      <trkpt lat="48.61933" lon="7.47588">
        <ele>195.28</ele>
        <time>2017-04-16T07:17:17Z</time>
      </trkpt>
      <trkpt lat="48.61931" lon="7.47581">
        <ele>195.28</ele>
        <time>2017-04-16T07:17:18Z</time>
      </trkpt>
      <trkpt lat="48.6193" lon="7.47573">
        <ele>195.77</ele>
        <time>2017-04-16T07:17:19Z</time>
      </trkpt>
      <trkpt lat="48.61929" lon="7.47564">
        <ele>195.77</ele>
        <time>2017-04-16T07:17:20Z</time>
      </trkpt>
      <trkpt lat="48.6193" lon="7.47557">
        <ele>195.28</ele>
        <time>2017-04-16T07:17:21Z</time>
      </trkpt>
      <trkpt lat="48.61931" lon="7.47549">
        <ele>195.77</ele>
        <time>2017-04-16T07:17:22Z</time>
      </trkpt>
      <trkpt lat="48.61934" lon="7.47542">
        <ele>195.28</ele>
        <time>2017-04-16T07:17:23Z</time>
      </trkpt>
      <trkpt lat="48.61937" lon="7.47536">
        <ele>195.28</ele>
        <time>2017-04-16T07:17:24Z</time>
      </trkpt>
      <trkpt lat="48.61941" lon="7.47532">
        <ele>195.28</ele>
        <time>2017-04-16T07:17:25Z</time>
      </trkpt>
      <trkpt lat="48.61947" lon="7.47531">
        <ele>195.28</ele>
        <time>2017-04-16T07:17:26Z</time>
      </trkpt>
      <trkpt lat="48.61953" lon="7.47531">
        <ele>195.28</ele>
        <time>2017-04-16T07:17:27Z</time>
      </trkpt>
      <trkpt lat="48.62029" lon="7.47529">
        <ele>195.28</ele>
        <time>2017-04-16T07:17:40Z</time>
      </trkpt>
      <trkpt lat="48.62118" lon="7.4752">
        <ele>197.69</ele>
        <time>2017-04-16T07:17:57Z</time>
      </trkpt>
      <trkpt lat="48.62152" lon="7.47498">
        <ele>198.17</ele>
        <time>2017-04-16T07:18:08Z</time>
      </trkpt>
      <trkpt lat="48.62172" lon="7.4749">
        <ele>198.65</ele>
        <time>2017-04-16T07:18:13Z</time>
      </trkpt>
      <trkpt lat="48.62176" lon="7.47487">
        <ele>198.65</ele>
        <time>2017-04-16T07:18:14Z</time>
      </trkpt>
      <trkpt lat="48.62242" lon="7.47418">
        <ele>198.17</ele>
        <time>2017-04-16T07:18:29Z</time>
      </trkpt>
      <trkpt lat="48.62314" lon="7.47336">
        <ele>198.65</ele>
        <time>2017-04-16T07:18:46Z</time>
      </trkpt>
      <trkpt lat="48.62352" lon="7.47294">
        <ele>199.13</ele>
        <time>2017-04-16T07:18:56Z</time>
      </trkpt>
      <trkpt lat="48.62361" lon="7.47278">
        <ele>199.13</ele>
        <time>2017-04-16T07:19:00Z</time>
      </trkpt>
      <trkpt lat="48.62355" lon="7.47259">
        <ele>199.13</ele>
        <time>2017-04-16T07:19:04Z</time>
      </trkpt>
      <trkpt lat="48.62351" lon="7.47239">
        <ele>198.65</ele>
        <time>2017-04-16T07:19:07Z</time>
      </trkpt>
      <trkpt lat="48.62318" lon="7.47162">
        <ele>198.17</ele>
        <time>2017-04-16T07:19:19Z</time>
      </trkpt>
      <trkpt lat="48.62315" lon="7.47158">
        <ele>198.17</ele>
        <time>2017-04-16T07:19:20Z</time>
      </trkpt>
      <trkpt lat="48.62311" lon="7.47153">
        <ele>198.65</ele>
        <time>2017-04-16T07:19:21Z</time>
      </trkpt>
      <trkpt lat="48.62306" lon="7.4715">
        <ele>198.17</ele>
        <time>2017-04-16T07:19:22Z</time>
      </trkpt>
      <trkpt lat="48.623" lon="7.47147">
        <ele>198.17</ele>
        <time>2017-04-16T07:19:23Z</time>
      </trkpt>
      <trkpt lat="48.62295" lon="7.47144">
        <ele>198.65</ele>
        <time>2017-04-16T07:19:24Z</time>
      </trkpt>
      <trkpt lat="48.62265" lon="7.47135">
        <ele>199.61</ele>
        <time>2017-04-16T07:19:30Z</time>
      </trkpt>
      <trkpt lat="48.62208" lon="7.47138">
        <ele>201.53</ele>
        <time>2017-04-16T07:19:44Z</time>
      </trkpt>
      <trkpt lat="48.62154" lon="7.47147">
        <ele>204.42</ele>
        <time>2017-04-16T07:19:59Z</time>
      </trkpt>
      <trkpt lat="48.6211" lon="7.47152">
        <ele>205.38</ele>
        <time>2017-04-16T07:20:14Z</time>
      </trkpt>
      <trkpt lat="48.62096" lon="7.47157">
        <ele>207.78</ele>
        <time>2017-04-16T07:20:19Z</time>
      </trkpt>
      <trkpt lat="48.62049" lon="7.4717">
        <ele>210.19</ele>
        <time>2017-04-16T07:20:35Z</time>
      </trkpt>
      <trkpt lat="48.61998" lon="7.47185">
        <ele>213.07</ele>
        <time>2017-04-16T07:20:52Z</time>
      </trkpt>
      <trkpt lat="48.61957" lon="7.47167">
        <ele>215.47</ele>
        <time>2017-04-16T07:21:06Z</time>
      </trkpt>
      <trkpt lat="48.61928" lon="7.47106">
        <ele>218.36</ele>
        <time>2017-04-16T07:21:23Z</time>
      </trkpt>
      <trkpt lat="48.61904" lon="7.47044">
        <ele>221.24</ele>
        <time>2017-04-16T07:21:39Z</time>
      </trkpt>
      <trkpt lat="48.61878" lon="7.4696">
        <ele>223.16</ele>
        <time>2017-04-16T07:21:57Z</time>
      </trkpt>
      <trkpt lat="48.61855" lon="7.46869">
        <ele>225.09</ele>
        <time>2017-04-16T07:22:14Z</time>
      </trkpt>
      <trkpt lat="48.61839" lon="7.46775">
        <ele>227.49</ele>
        <time>2017-04-16T07:22:30Z</time>
      </trkpt>
      <trkpt lat="48.61836" lon="7.46699">
        <ele>229.41</ele>
        <time>2017-04-16T07:22:44Z</time>
      </trkpt>
      <trkpt lat="48.61831" lon="7.4663">
        <ele>230.85</ele>
        <time>2017-04-16T07:22:58Z</time>
      </trkpt>
      <trkpt lat="48.61812" lon="7.46571">
        <ele>232.78</ele>
        <time>2017-04-16T07:23:10Z</time>
      </trkpt>
      <trkpt lat="48.61801" lon="7.46551">
        <ele>233.26</ele>
        <time>2017-04-16T07:23:14Z</time>
      </trkpt>
      <trkpt lat="48.61799" lon="7.46547">
        <ele>233.26</ele>
        <time>2017-04-16T07:23:15Z</time>
      </trkpt>
      <trkpt lat="48.61791" lon="7.46531">
        <ele>233.26</ele>
        <time>2017-04-16T07:23:18Z</time>
      </trkpt>
      <trkpt lat="48.61782" lon="7.46508">
        <ele>233.26</ele>
        <time>2017-04-16T07:23:22Z</time>
      </trkpt>
      <trkpt lat="48.61779" lon="7.46503">
        <ele>233.26</ele>
        <time>2017-04-16T07:23:23Z</time>
      </trkpt>
      <trkpt lat="48.61744" lon="7.46452">
        <ele>235.18</ele>
        <time>2017-04-16T07:23:37Z</time>
      </trkpt>
      <trkpt lat="48.61694" lon="7.46422">
        <ele>236.14</ele>
        <time>2017-04-16T07:23:51Z</time>
      </trkpt>
      <trkpt lat="48.61671" lon="7.46397">
        <ele>237.1</ele>
        <time>2017-04-16T07:23:59Z</time>
      </trkpt>
      <trkpt lat="48.61668" lon="7.46399">
        <ele>237.1</ele>
        <time>2017-04-16T07:24:00Z</time>
      </trkpt>
      <trkpt lat="48.61666" lon="7.46404">
        <ele>237.1</ele>
        <time>2017-04-16T07:24:01Z</time>
      </trkpt>
      <trkpt lat="48.61665" lon="7.46408">
        <ele>237.1</ele>
        <time>2017-04-16T07:24:02Z</time>
      </trkpt>
      <trkpt lat="48.61663" lon="7.46413">
        <ele>237.1</ele>
        <time>2017-04-16T07:24:03Z</time>
      </trkpt>
      <trkpt lat="48.61638" lon="7.46461">
        <ele>236.14</ele>
        <time>2017-04-16T07:24:12Z</time>
      </trkpt>
      <trkpt lat="48.61635" lon="7.46468">
        <ele>235.66</ele>
        <time>2017-04-16T07:24:13Z</time>
      </trkpt>
      <trkpt lat="48.61628" lon="7.4649">
        <ele>235.18</ele>
        <time>2017-04-16T07:24:16Z</time>
      </trkpt>
      <trkpt lat="48.61626" lon="7.46498">
        <ele>234.7</ele>
        <time>2017-04-16T07:24:17Z</time>
      </trkpt>
      <trkpt lat="48.61613" lon="7.46533">
        <ele>233.74</ele>
        <time>2017-04-16T07:24:22Z</time>
      </trkpt>
      <trkpt lat="48.6161" lon="7.46539">
        <ele>233.74</ele>
        <time>2017-04-16T07:24:23Z</time>
      </trkpt>
      <trkpt lat="48.61602" lon="7.46554">
        <ele>233.26</ele>
        <time>2017-04-16T07:24:25Z</time>
      </trkpt>
      <trkpt lat="48.61587" lon="7.46577">
        <ele>233.26</ele>
        <time>2017-04-16T07:24:29Z</time>
      </trkpt>
      <trkpt lat="48.61557" lon="7.46629">
        <ele>230.37</ele>
        <time>2017-04-16T07:24:37Z</time>
      </trkpt>
      <trkpt lat="48.61552" lon="7.46636">
        <ele>229.41</ele>
        <time>2017-04-16T07:24:38Z</time>
      </trkpt>
      <trkpt lat="48.61547" lon="7.46642">
        <ele>229.41</ele>
        <time>2017-04-16T07:24:39Z</time>
      </trkpt>
      <trkpt lat="48.6154" lon="7.46647">
        <ele>229.41</ele>
        <time>2017-04-16T07:24:40Z</time>
      </trkpt>
      <trkpt lat="48.61534" lon="7.46652">
        <ele>228.93</ele>
        <time>2017-04-16T07:24:41Z</time>
      </trkpt>
      <trkpt lat="48.61526" lon="7.46656">
        <ele>228.45</ele>
        <time>2017-04-16T07:24:42Z</time>
      </trkpt>
      <trkpt lat="48.6152" lon="7.46658">
        <ele>228.45</ele>
        <time>2017-04-16T07:24:43Z</time>
      </trkpt>
      <trkpt lat="48.61512" lon="7.4666">
        <ele>228.45</ele>
        <time>2017-04-16T07:24:44Z</time>
      </trkpt>
      <trkpt lat="48.61505" lon="7.4666">
        <ele>227.97</ele>
        <time>2017-04-16T07:24:45Z</time>
      </trkpt>
      <trkpt lat="48.61498" lon="7.46658">
        <ele>227.97</ele>
        <time>2017-04-16T07:24:46Z</time>
      </trkpt>
      <trkpt lat="48.61397" lon="7.46646">
        <ele>225.09</ele>
        <time>2017-04-16T07:25:01Z</time>
      </trkpt>
      <trkpt lat="48.61329" lon="7.46665">
        <ele>223.16</ele>
        <time>2017-04-16T07:25:11Z</time>
      </trkpt>
      <trkpt lat="48.61323" lon="7.4667">
        <ele>223.16</ele>
        <time>2017-04-16T07:25:12Z</time>
      </trkpt>
      <trkpt lat="48.6127" lon="7.46718">
        <ele>223.16</ele>
        <time>2017-04-16T07:25:23Z</time>
      </trkpt>
      <trkpt lat="48.61265" lon="7.4672">
        <ele>223.64</ele>
        <time>2017-04-16T07:25:24Z</time>
      </trkpt>
      <trkpt lat="48.6126" lon="7.46719">
        <ele>223.64</ele>
        <time>2017-04-16T07:25:25Z</time>
      </trkpt>
      <trkpt lat="48.61257" lon="7.46715">
        <ele>224.12</ele>
        <time>2017-04-16T07:25:26Z</time>
      </trkpt>
      <trkpt lat="48.61254" lon="7.46707">
        <ele>224.12</ele>
        <time>2017-04-16T07:25:27Z</time>
      </trkpt>
      <trkpt lat="48.61253" lon="7.467">
        <ele>224.12</ele>
        <time>2017-04-16T07:25:28Z</time>
      </trkpt>
      <trkpt lat="48.61252" lon="7.46693">
        <ele>224.12</ele>
        <time>2017-04-16T07:25:29Z</time>
      </trkpt>
      <trkpt lat="48.61252" lon="7.46686">
        <ele>224.61</ele>
        <time>2017-04-16T07:25:30Z</time>
      </trkpt>
      <trkpt lat="48.61251" lon="7.46671">
        <ele>224.61</ele>
        <time>2017-04-16T07:25:32Z</time>
      </trkpt>
      <trkpt lat="48.61214" lon="7.46285">
        <ele>235.66</ele>
        <time>2017-04-16T07:26:37Z</time>
      </trkpt>
      <trkpt lat="48.61195" lon="7.46211">
        <ele>238.54</ele>
        <time>2017-04-16T07:26:52Z</time>
      </trkpt>
      <trkpt lat="48.6116" lon="7.46133">
        <ele>240.95</ele>
        <time>2017-04-16T07:27:08Z</time>
      </trkpt>
      <trkpt lat="48.61118" lon="7.46027">
        <ele>242.39</ele>
        <time>2017-04-16T07:27:28Z</time>
      </trkpt>
      <trkpt lat="48.61113" lon="7.46013">
        <ele>241.91</ele>
        <time>2017-04-16T07:27:30Z</time>
      </trkpt>
      <trkpt lat="48.61105" lon="7.4599">
        <ele>240.47</ele>
        <time>2017-04-16T07:27:33Z</time>
      </trkpt>
      <trkpt lat="48.61084" lon="7.45936">
        <ele>237.1</ele>
        <time>2017-04-16T07:27:39Z</time>
      </trkpt>
      <trkpt lat="48.61079" lon="7.45926">
        <ele>237.1</ele>
        <time>2017-04-16T07:27:40Z</time>
      </trkpt>
      <trkpt lat="48.61048" lon="7.45862">
        <ele>233.26</ele>
        <time>2017-04-16T07:27:46Z</time>
      </trkpt>
      <trkpt lat="48.61002" lon="7.45776">
        <ele>229.89</ele>
        <time>2017-04-16T07:27:54Z</time>
      </trkpt>
      <trkpt lat="48.60945" lon="7.45645">
        <ele>227.97</ele>
        <time>2017-04-16T07:28:07Z</time>
      </trkpt>
      <trkpt lat="48.60918" lon="7.45588">
        <ele>229.41</ele>
        <time>2017-04-16T07:28:15Z</time>
      </trkpt>
      <trkpt lat="48.60914" lon="7.45582">
        <ele>228.93</ele>
        <time>2017-04-16T07:28:16Z</time>
      </trkpt>
      <trkpt lat="48.60877" lon="7.45507">
        <ele>226.05</ele>
        <time>2017-04-16T07:28:25Z</time>
      </trkpt>
      <trkpt lat="48.60862" lon="7.45446">
        <ele>222.68</ele>
        <time>2017-04-16T07:28:30Z</time>
      </trkpt>
      <trkpt lat="48.60838" lon="7.45326">
        <ele>220.28</ele>
        <time>2017-04-16T07:28:40Z</time>
      </trkpt>
      <trkpt lat="48.6079" lon="7.45246">
        <ele>222.2</ele>
        <time>2017-04-16T07:28:52Z</time>
      </trkpt>
      <trkpt lat="48.60779" lon="7.4523">
        <ele>223.16</ele>
        <time>2017-04-16T07:28:55Z</time>
      </trkpt>
      <trkpt lat="48.60719" lon="7.45141">
        <ele>223.64</ele>
        <time>2017-04-16T07:29:10Z</time>
      </trkpt>
      <trkpt lat="48.60636" lon="7.45037">
        <ele>221.24</ele>
        <time>2017-04-16T07:29:27Z</time>
      </trkpt>
      <trkpt lat="48.6055" lon="7.44949">
        <ele>219.32</ele>
        <time>2017-04-16T07:29:43Z</time>
      </trkpt>
      <trkpt lat="48.60505" lon="7.44904">
        <ele>215.95</ele>
        <time>2017-04-16T07:29:51Z</time>
      </trkpt>
      <trkpt lat="48.6041" lon="7.4483">
        <ele>213.07</ele>
        <time>2017-04-16T07:30:06Z</time>
      </trkpt>
      <trkpt lat="48.60405" lon="7.44823">
        <ele>213.07</ele>
        <time>2017-04-16T07:30:07Z</time>
      </trkpt>
      <trkpt lat="48.60403" lon="7.44814">
        <ele>213.07</ele>
        <time>2017-04-16T07:30:08Z</time>
      </trkpt>
      <trkpt lat="48.60402" lon="7.44806">
        <ele>212.59</ele>
        <time>2017-04-16T07:30:09Z</time>
      </trkpt>
      <trkpt lat="48.60402" lon="7.44797">
        <ele>212.59</ele>
        <time>2017-04-16T07:30:10Z</time>
      </trkpt>
      <trkpt lat="48.60396" lon="7.44662">
        <ele>211.63</ele>
        <time>2017-04-16T07:30:25Z</time>
      </trkpt>
      <trkpt lat="48.60397" lon="7.44512">
        <ele>209.7</ele>
        <time>2017-04-16T07:30:41Z</time>
      </trkpt>
      <trkpt lat="48.60397" lon="7.44473">
        <ele>210.67</ele>
        <time>2017-04-16T07:30:46Z</time>
      </trkpt>
      <trkpt lat="48.60397" lon="7.44467">
        <ele>210.67</ele>
        <time>2017-04-16T07:30:47Z</time>
      </trkpt>
      <trkpt lat="48.60413" lon="7.44392">
        <ele>214.03</ele>
        <time>2017-04-16T07:31:00Z</time>
      </trkpt>
      <trkpt lat="48.6043" lon="7.4432">
        <ele>216.91</ele>
        <time>2017-04-16T07:31:13Z</time>
      </trkpt>
      <trkpt lat="48.60438" lon="7.44243">
        <ele>219.8</ele>
        <time>2017-04-16T07:31:28Z</time>
      </trkpt>
      <trkpt lat="48.60443" lon="7.44202">
        <ele>219.8</ele>
        <time>2017-04-16T07:31:40Z</time>
      </trkpt>
      <trkpt lat="48.60457" lon="7.43993">
        <ele>221.72</ele>
        <time>2017-04-16T07:32:17Z</time>
      </trkpt>
      <trkpt lat="48.60455" lon="7.4399">
        <ele>221.72</ele>
        <time>2017-04-16T07:32:18Z</time>
      </trkpt>
      <trkpt lat="48.60453" lon="7.43989">
        <ele>221.72</ele>
        <time>2017-04-16T07:32:19Z</time>
      </trkpt>
      <trkpt lat="48.60429" lon="7.43984">
        <ele>219.32</ele>
        <time>2017-04-16T07:32:27Z</time>
      </trkpt>
      <trkpt lat="48.60406" lon="7.43979">
        <ele>217.4</ele>
        <time>2017-04-16T07:32:30Z</time>
      </trkpt>
      <trkpt lat="48.6036" lon="7.43977">
        <ele>214.03</ele>
        <time>2017-04-16T07:32:35Z</time>
      </trkpt>
      <trkpt lat="48.60331" lon="7.4398">
        <ele>212.11</ele>
        <time>2017-04-16T07:32:38Z</time>
      </trkpt>
      <trkpt lat="48.60307" lon="7.43984">
        <ele>210.19</ele>
        <time>2017-04-16T07:32:41Z</time>
      </trkpt>
      <trkpt lat="48.60229" lon="7.44037">
        <ele>207.78</ele>
        <time>2017-04-16T07:32:52Z</time>
      </trkpt>
      <trkpt lat="48.60205" lon="7.44051">
        <ele>207.3</ele>
        <time>2017-04-16T07:32:56Z</time>
      </trkpt>
      <trkpt lat="48.60193" lon="7.4406">
        <ele>207.78</ele>
        <time>2017-04-16T07:32:59Z</time>
      </trkpt>
      <trkpt lat="48.6019" lon="7.44066">
        <ele>207.78</ele>
        <time>2017-04-16T07:33:00Z</time>
      </trkpt>
      <trkpt lat="48.60187" lon="7.44072">
        <ele>207.78</ele>
        <time>2017-04-16T07:33:01Z</time>
      </trkpt>
      <trkpt lat="48.60185" lon="7.44078">
        <ele>207.3</ele>
        <time>2017-04-16T07:33:02Z</time>
      </trkpt>
      <trkpt lat="48.60183" lon="7.44085">
        <ele>207.3</ele>
        <time>2017-04-16T07:33:03Z</time>
      </trkpt>
      <trkpt lat="48.60182" lon="7.44092">
        <ele>207.3</ele>
        <time>2017-04-16T07:33:04Z</time>
      </trkpt>
      <trkpt lat="48.6018" lon="7.441">
        <ele>206.82</ele>
        <time>2017-04-16T07:33:05Z</time>
      </trkpt>
      <trkpt lat="48.60163" lon="7.44201">
        <ele>205.86</ele>
        <time>2017-04-16T07:33:17Z</time>
      </trkpt>
      <trkpt lat="48.60161" lon="7.44215">
        <ele>205.86</ele>
        <time>2017-04-16T07:33:19Z</time>
      </trkpt>
      <trkpt lat="48.60159" lon="7.44221">
        <ele>205.86</ele>
        <time>2017-04-16T07:33:20Z</time>
      </trkpt>
      <trkpt lat="48.60155" lon="7.44225">
        <ele>205.86</ele>
        <time>2017-04-16T07:33:21Z</time>
      </trkpt>
      <trkpt lat="48.60151" lon="7.44226">
        <ele>205.86</ele>
        <time>2017-04-16T07:33:22Z</time>
      </trkpt>
      <trkpt lat="48.60148" lon="7.44226">
        <ele>205.86</ele>
        <time>2017-04-16T07:33:23Z</time>
      </trkpt>
      <trkpt lat="48.60144" lon="7.44223">
        <ele>206.34</ele>
        <time>2017-04-16T07:33:24Z</time>
      </trkpt>
      <trkpt lat="48.6014" lon="7.4422">
        <ele>205.86</ele>
        <time>2017-04-16T07:33:25Z</time>
      </trkpt>
      <trkpt lat="48.60129" lon="7.4421">
        <ele>206.82</ele>
        <time>2017-04-16T07:33:28Z</time>
      </trkpt>
      <trkpt lat="48.60111" lon="7.44204">
        <ele>206.34</ele>
        <time>2017-04-16T07:33:32Z</time>
      </trkpt>
      <trkpt lat="48.60107" lon="7.44204">
        <ele>206.82</ele>
        <time>2017-04-16T07:33:33Z</time>
      </trkpt>
      <trkpt lat="48.60102" lon="7.44206">
        <ele>206.82</ele>
        <time>2017-04-16T07:33:34Z</time>
      </trkpt>
      <trkpt lat="48.60097" lon="7.44209">
        <ele>206.34</ele>
        <time>2017-04-16T07:33:35Z</time>
      </trkpt>
      <trkpt lat="48.60093" lon="7.44213">
        <ele>206.34</ele>
        <time>2017-04-16T07:33:36Z</time>
      </trkpt>
      <trkpt lat="48.60089" lon="7.44219">
        <ele>206.34</ele>
        <time>2017-04-16T07:33:37Z</time>
      </trkpt>
      <trkpt lat="48.60087" lon="7.44227">
        <ele>205.86</ele>
        <time>2017-04-16T07:33:38Z</time>
      </trkpt>
      <trkpt lat="48.60084" lon="7.44235">
        <ele>205.38</ele>
        <time>2017-04-16T07:33:39Z</time>
      </trkpt>
      <trkpt lat="48.60082" lon="7.44243">
        <ele>205.38</ele>
        <time>2017-04-16T07:33:40Z</time>
      </trkpt>
      <trkpt lat="48.6008" lon="7.44251">
        <ele>205.38</ele>
        <time>2017-04-16T07:33:41Z</time>
      </trkpt>
      <trkpt lat="48.60079" lon="7.44259">
        <ele>204.9</ele>
        <time>2017-04-16T07:33:42Z</time>
      </trkpt>
      <trkpt lat="48.60078" lon="7.44268">
        <ele>204.9</ele>
        <time>2017-04-16T07:33:43Z</time>
      </trkpt>
      <trkpt lat="48.6006" lon="7.44373">
        <ele>203.46</ele>
        <time>2017-04-16T07:33:55Z</time>
      </trkpt>
      <trkpt lat="48.60057" lon="7.44381">
        <ele>203.46</ele>
        <time>2017-04-16T07:33:56Z</time>
      </trkpt>
      <trkpt lat="48.60001" lon="7.44464">
        <ele>203.46</ele>
        <time>2017-04-16T07:34:10Z</time>
      </trkpt>
      <trkpt lat="48.59987" lon="7.44474">
        <ele>202.98</ele>
        <time>2017-04-16T07:34:13Z</time>
      </trkpt>
      <trkpt lat="48.5995" lon="7.44493">
        <ele>203.46</ele>
        <time>2017-04-16T07:34:21Z</time>
      </trkpt>
      <trkpt lat="48.59947" lon="7.44498">
        <ele>203.46</ele>
        <time>2017-04-16T07:34:22Z</time>
      </trkpt>
      <trkpt lat="48.59944" lon="7.44504">
        <ele>203.94</ele>
        <time>2017-04-16T07:34:23Z</time>
      </trkpt>
      <trkpt lat="48.59941" lon="7.44511">
        <ele>203.94</ele>
        <time>2017-04-16T07:34:24Z</time>
      </trkpt>
      <trkpt lat="48.59938" lon="7.44516">
        <ele>203.94</ele>
        <time>2017-04-16T07:34:25Z</time>
      </trkpt>
      <trkpt lat="48.59935" lon="7.4452">
        <ele>204.42</ele>
        <time>2017-04-16T07:34:26Z</time>
      </trkpt>
      <trkpt lat="48.59931" lon="7.44525">
        <ele>204.9</ele>
        <time>2017-04-16T07:34:27Z</time>
      </trkpt>
      <trkpt lat="48.59915" lon="7.44541">
        <ele>205.38</ele>
        <time>2017-04-16T07:34:31Z</time>
      </trkpt>
      <trkpt lat="48.5988" lon="7.44609">
        <ele>208.26</ele>
        <time>2017-04-16T07:34:43Z</time>
      </trkpt>
      <trkpt lat="48.59878" lon="7.44615">
        <ele>208.74</ele>
        <time>2017-04-16T07:34:44Z</time>
      </trkpt>
      <trkpt lat="48.5987" lon="7.44645">
        <ele>209.7</ele>
        <time>2017-04-16T07:34:49Z</time>
      </trkpt>
      <trkpt lat="48.59869" lon="7.44652">
        <ele>210.19</ele>
        <time>2017-04-16T07:34:50Z</time>
      </trkpt>
      <trkpt lat="48.59857" lon="7.44756">
        <ele>211.63</ele>
        <time>2017-04-16T07:35:06Z</time>
      </trkpt>
      <trkpt lat="48.59853" lon="7.44833">
        <ele>212.59</ele>
        <time>2017-04-16T07:35:17Z</time>
      </trkpt>
      <trkpt lat="48.59853" lon="7.4484">
        <ele>212.59</ele>
        <time>2017-04-16T07:35:18Z</time>
      </trkpt>
      <trkpt lat="48.59852" lon="7.44847">
        <ele>212.11</ele>
        <time>2017-04-16T07:35:19Z</time>
      </trkpt>
      <trkpt lat="48.5983" lon="7.44966">
        <ele>213.07</ele>
        <time>2017-04-16T07:35:36Z</time>
      </trkpt>
      <trkpt lat="48.59803" lon="7.45093">
        <ele>213.55</ele>
        <time>2017-04-16T07:35:51Z</time>
      </trkpt>
      <trkpt lat="48.59812" lon="7.45231">
        <ele>213.07</ele>
        <time>2017-04-16T07:36:06Z</time>
      </trkpt>
      <trkpt lat="48.59833" lon="7.4536">
        <ele>212.11</ele>
        <time>2017-04-16T07:36:20Z</time>
      </trkpt>
      <trkpt lat="48.59833" lon="7.4537">
        <ele>212.59</ele>
        <time>2017-04-16T07:36:21Z</time>
      </trkpt>
      <trkpt lat="48.59833" lon="7.45461">
        <ele>209.22</ele>
        <time>2017-04-16T07:36:29Z</time>
      </trkpt>
      <trkpt lat="48.59831" lon="7.45522">
        <ele>208.26</ele>
        <time>2017-04-16T07:36:34Z</time>
      </trkpt>
      <trkpt lat="48.59812" lon="7.45673">
        <ele>208.74</ele>
        <time>2017-04-16T07:36:48Z</time>
      </trkpt>
      <trkpt lat="48.59807" lon="7.4574">
        <ele>209.22</ele>
        <time>2017-04-16T07:36:55Z</time>
      </trkpt>
      <trkpt lat="48.59805" lon="7.45749">
        <ele>210.19</ele>
        <time>2017-04-16T07:36:56Z</time>
      </trkpt>
      <trkpt lat="48.59802" lon="7.45757">
        <ele>210.19</ele>
        <time>2017-04-16T07:36:57Z</time>
      </trkpt>
      <trkpt lat="48.59799" lon="7.45765">
        <ele>210.19</ele>
        <time>2017-04-16T07:36:58Z</time>
      </trkpt>
      <trkpt lat="48.59795" lon="7.45772">
        <ele>210.19</ele>
        <time>2017-04-16T07:36:59Z</time>
      </trkpt>
      <trkpt lat="48.59791" lon="7.45778">
        <ele>210.67</ele>
        <time>2017-04-16T07:37:00Z</time>
      </trkpt>
      <trkpt lat="48.59786" lon="7.45784">
        <ele>210.67</ele>
        <time>2017-04-16T07:37:01Z</time>
      </trkpt>
      <trkpt lat="48.59728" lon="7.45872">
        <ele>213.55</ele>
        <time>2017-04-16T07:37:16Z</time>
      </trkpt>
      <trkpt lat="48.59723" lon="7.45886">
        <ele>214.03</ele>
        <time>2017-04-16T07:37:18Z</time>
      </trkpt>
      <trkpt lat="48.59721" lon="7.45893">
        <ele>214.51</ele>
        <time>2017-04-16T07:37:19Z</time>
      </trkpt>
      <trkpt lat="48.59721" lon="7.459">
        <ele>214.03</ele>
        <time>2017-04-16T07:37:20Z</time>
      </trkpt>
      <trkpt lat="48.5972" lon="7.45908">
        <ele>214.51</ele>
        <time>2017-04-16T07:37:21Z</time>
      </trkpt>
      <trkpt lat="48.59721" lon="7.45916">
        <ele>214.51</ele>
        <time>2017-04-16T07:37:22Z</time>
      </trkpt>
      <trkpt lat="48.59721" lon="7.45924">
        <ele>214.51</ele>
        <time>2017-04-16T07:37:23Z</time>
      </trkpt>
      <trkpt lat="48.59728" lon="7.46066">
        <ele>214.51</ele>
        <time>2017-04-16T07:37:39Z</time>
      </trkpt>
      <trkpt lat="48.59725" lon="7.46083">
        <ele>214.51</ele>
        <time>2017-04-16T07:37:41Z</time>
      </trkpt>
      <trkpt lat="48.59722" lon="7.46091">
        <ele>214.51</ele>
        <time>2017-04-16T07:37:42Z</time>
      </trkpt>
      <trkpt lat="48.59719" lon="7.46097">
        <ele>215.47</ele>
        <time>2017-04-16T07:37:43Z</time>
      </trkpt>
      <trkpt lat="48.59715" lon="7.46103">
        <ele>215.95</ele>
        <time>2017-04-16T07:37:44Z</time>
      </trkpt>
      <trkpt lat="48.59711" lon="7.46108">
        <ele>215.95</ele>
        <time>2017-04-16T07:37:45Z</time>
      </trkpt>
      <trkpt lat="48.59633" lon="7.46189">
        <ele>217.4</ele>
        <time>2017-04-16T07:38:03Z</time>
      </trkpt>
      <trkpt lat="48.59569" lon="7.46257">
        <ele>213.55</ele>
        <time>2017-04-16T07:38:15Z</time>
      </trkpt>
      <trkpt lat="48.59562" lon="7.46263">
        <ele>213.07</ele>
        <time>2017-04-16T07:38:16Z</time>
      </trkpt>
      <trkpt lat="48.59537" lon="7.46285">
        <ele>211.63</ele>
        <time>2017-04-16T07:38:20Z</time>
      </trkpt>
      <trkpt lat="48.59532" lon="7.46291">
        <ele>211.63</ele>
        <time>2017-04-16T07:38:21Z</time>
      </trkpt>
      <trkpt lat="48.59509" lon="7.46308">
        <ele>210.67</ele>
        <time>2017-04-16T07:38:26Z</time>
      </trkpt>
      <trkpt lat="48.59505" lon="7.46307">
        <ele>210.67</ele>
        <time>2017-04-16T07:38:27Z</time>
      </trkpt>
      <trkpt lat="48.59501" lon="7.46303">
        <ele>210.19</ele>
        <time>2017-04-16T07:38:28Z</time>
      </trkpt>
      <trkpt lat="48.59493" lon="7.46293">
        <ele>210.67</ele>
        <time>2017-04-16T07:38:30Z</time>
      </trkpt>
      <trkpt lat="48.59489" lon="7.46287">
        <ele>210.67</ele>
        <time>2017-04-16T07:38:31Z</time>
      </trkpt>
      <trkpt lat="48.59457" lon="7.46241">
        <ele>212.11</ele>
        <time>2017-04-16T07:38:40Z</time>
      </trkpt>
      <trkpt lat="48.59397" lon="7.46172">
        <ele>214.51</ele>
        <time>2017-04-16T07:38:55Z</time>
      </trkpt>
      <trkpt lat="48.59385" lon="7.46159">
        <ele>214.03</ele>
        <time>2017-04-16T07:38:58Z</time>
      </trkpt>
      <trkpt lat="48.59382" lon="7.46153">
        <ele>214.51</ele>
        <time>2017-04-16T07:38:59Z</time>
      </trkpt>
      <trkpt lat="48.59373" lon="7.46136">
        <ele>214.51</ele>
        <time>2017-04-16T07:39:02Z</time>
      </trkpt>
      <trkpt lat="48.59371" lon="7.46129">
        <ele>214.51</ele>
        <time>2017-04-16T07:39:03Z</time>
      </trkpt>
      <trkpt lat="48.59365" lon="7.46111">
        <ele>214.99</ele>
        <time>2017-04-16T07:39:06Z</time>
      </trkpt>
      <trkpt lat="48.59322" lon="7.45986">
        <ele>217.4</ele>
        <time>2017-04-16T07:39:27Z</time>
      </trkpt>
      <trkpt lat="48.59285" lon="7.45868">
        <ele>218.36</ele>
        <time>2017-04-16T07:39:45Z</time>
      </trkpt>
      <trkpt lat="48.5927" lon="7.45819">
        <ele>218.84</ele>
        <time>2017-04-16T07:39:52Z</time>
      </trkpt>
      <trkpt lat="48.59267" lon="7.45813">
        <ele>218.84</ele>
        <time>2017-04-16T07:39:53Z</time>
      </trkpt>
      <trkpt lat="48.59263" lon="7.45808">
        <ele>218.84</ele>
        <time>2017-04-16T07:39:54Z</time>
      </trkpt>
      <trkpt lat="48.59258" lon="7.45804">
        <ele>218.84</ele>
        <time>2017-04-16T07:39:55Z</time>
      </trkpt>
      <trkpt lat="48.59253" lon="7.45802">
        <ele>219.32</ele>
        <time>2017-04-16T07:39:56Z</time>
      </trkpt>
      <trkpt lat="48.59248" lon="7.45801">
        <ele>218.84</ele>
        <time>2017-04-16T07:39:57Z</time>
      </trkpt>
      <trkpt lat="48.59242" lon="7.45803">
        <ele>218.84</ele>
        <time>2017-04-16T07:39:58Z</time>
      </trkpt>
      <trkpt lat="48.59237" lon="7.45805">
        <ele>218.84</ele>
        <time>2017-04-16T07:39:59Z</time>
      </trkpt>
      <trkpt lat="48.59231" lon="7.45808">
        <ele>219.32</ele>
        <time>2017-04-16T07:40:00Z</time>
      </trkpt>
      <trkpt lat="48.59153" lon="7.45839">
        <ele>220.28</ele>
        <time>2017-04-16T07:40:14Z</time>
      </trkpt>
      <trkpt lat="48.59148" lon="7.45838">
        <ele>220.76</ele>
        <time>2017-04-16T07:40:15Z</time>
      </trkpt>
      <trkpt lat="48.59143" lon="7.45834">
        <ele>221.24</ele>
        <time>2017-04-16T07:40:16Z</time>
      </trkpt>
      <trkpt lat="48.5914" lon="7.45829">
        <ele>221.24</ele>
        <time>2017-04-16T07:40:17Z</time>
      </trkpt>
      <trkpt lat="48.59138" lon="7.45822">
        <ele>221.72</ele>
        <time>2017-04-16T07:40:18Z</time>
      </trkpt>
      <trkpt lat="48.59136" lon="7.45814">
        <ele>221.72</ele>
        <time>2017-04-16T07:40:19Z</time>
      </trkpt>
      <trkpt lat="48.59135" lon="7.45806">
        <ele>221.72</ele>
        <time>2017-04-16T07:40:20Z</time>
      </trkpt>
      <trkpt lat="48.59135" lon="7.45798">
        <ele>222.2</ele>
        <time>2017-04-16T07:40:21Z</time>
      </trkpt>
      <trkpt lat="48.59123" lon="7.45668">
        <ele>223.64</ele>
        <time>2017-04-16T07:40:38Z</time>
      </trkpt>
      <trkpt lat="48.59001" lon="7.45">
        <ele>240.47</ele>
        <time>2017-04-16T07:42:33Z</time>
      </trkpt>
      <trkpt lat="48.58994" lon="7.44932">
        <ele>243.35</ele>
        <time>2017-04-16T07:42:49Z</time>
      </trkpt>
      <trkpt lat="48.58998" lon="7.44875">
        <ele>246.72</ele>
        <time>2017-04-16T07:43:04Z</time>
      </trkpt>
      <trkpt lat="48.58998" lon="7.4487">
        <ele>246.72</ele>
        <time>2017-04-16T07:43:13Z</time>
      </trkpt>
      <trkpt lat="48.58998" lon="7.44868">
        <ele>246.23</ele>
        <time>2017-04-16T07:43:14Z</time>
      </trkpt>
      <trkpt lat="48.58997" lon="7.44865">
        <ele>246.23</ele>
        <time>2017-04-16T07:43:15Z</time>
      </trkpt>
      <trkpt lat="48.58995" lon="7.44862">
        <ele>246.72</ele>
        <time>2017-04-16T07:43:16Z</time>
      </trkpt>
      <trkpt lat="48.58994" lon="7.4486">
        <ele>246.72</ele>
        <time>2017-04-16T07:43:17Z</time>
      </trkpt>
      <trkpt lat="48.58992" lon="7.44857">
        <ele>246.72</ele>
        <time>2017-04-16T07:43:18Z</time>
      </trkpt>
      <trkpt lat="48.58959" lon="7.44807">
        <ele>247.2</ele>
        <time>2017-04-16T07:43:32Z</time>
      </trkpt>
      <trkpt lat="48.58943" lon="7.44782">
        <ele>246.72</ele>
        <time>2017-04-16T07:43:38Z</time>
      </trkpt>
      <trkpt lat="48.58906" lon="7.44684">
        <ele>247.2</ele>
        <time>2017-04-16T07:43:53Z</time>
      </trkpt>
      <trkpt lat="48.58857" lon="7.4457">
        <ele>244.79</ele>
        <time>2017-04-16T07:44:09Z</time>
      </trkpt>
      <trkpt lat="48.58801" lon="7.44423">
        <ele>243.35</ele>
        <time>2017-04-16T07:44:27Z</time>
      </trkpt>
      <trkpt lat="48.58754" lon="7.44306">
        <ele>241.91</ele>
        <time>2017-04-16T07:44:42Z</time>
      </trkpt>
      <trkpt lat="48.58712" lon="7.4417">
        <ele>241.43</ele>
        <time>2017-04-16T07:45:00Z</time>
      </trkpt>
      <trkpt lat="48.58709" lon="7.44162">
        <ele>241.43</ele>
        <time>2017-04-16T07:45:01Z</time>
      </trkpt>
      <trkpt lat="48.58706" lon="7.44155">
        <ele>241.43</ele>
        <time>2017-04-16T07:45:02Z</time>
      </trkpt>
      <trkpt lat="48.58702" lon="7.44149">
        <ele>241.43</ele>
        <time>2017-04-16T07:45:03Z</time>
      </trkpt>
      <trkpt lat="48.58697" lon="7.44143">
        <ele>241.43</ele>
        <time>2017-04-16T07:45:04Z</time>
      </trkpt>
      <trkpt lat="48.58693" lon="7.44137">
        <ele>241.43</ele>
        <time>2017-04-16T07:45:05Z</time>
      </trkpt>
      <trkpt lat="48.58642" lon="7.44085">
        <ele>239.51</ele>
        <time>2017-04-16T07:45:15Z</time>
      </trkpt>
      <trkpt lat="48.58637" lon="7.4408">
        <ele>239.51</ele>
        <time>2017-04-16T07:45:16Z</time>
      </trkpt>
      <trkpt lat="48.58554" lon="7.43989">
        <ele>236.62</ele>
        <time>2017-04-16T07:45:33Z</time>
      </trkpt>
      <trkpt lat="48.58503" lon="7.43889">
        <ele>234.7</ele>
        <time>2017-04-16T07:45:46Z</time>
      </trkpt>
      <trkpt lat="48.58488" lon="7.43861">
        <ele>234.7</ele>
        <time>2017-04-16T07:45:50Z</time>
      </trkpt>
      <trkpt lat="48.58478" lon="7.43848">
        <ele>234.22</ele>
        <time>2017-04-16T07:45:52Z</time>
      </trkpt>
      <trkpt lat="48.58452" lon="7.43818">
        <ele>233.26</ele>
        <time>2017-04-16T07:45:57Z</time>
      </trkpt>
      <trkpt lat="48.58446" lon="7.43813">
        <ele>232.78</ele>
        <time>2017-04-16T07:45:58Z</time>
      </trkpt>
      <trkpt lat="48.58424" lon="7.43785">
        <ele>231.33</ele>
        <time>2017-04-16T07:46:02Z</time>
      </trkpt>
      <trkpt lat="48.58415" lon="7.43768">
        <ele>230.37</ele>
        <time>2017-04-16T07:46:04Z</time>
      </trkpt>
      <trkpt lat="48.58412" lon="7.43759">
        <ele>230.37</ele>
        <time>2017-04-16T07:46:05Z</time>
      </trkpt>
      <trkpt lat="48.58404" lon="7.43733">
        <ele>229.41</ele>
        <time>2017-04-16T07:46:08Z</time>
      </trkpt>
      <trkpt lat="48.584" lon="7.43729">
        <ele>229.41</ele>
        <time>2017-04-16T07:46:09Z</time>
      </trkpt>
      <trkpt lat="48.58395" lon="7.43726">
        <ele>228.45</ele>
        <time>2017-04-16T07:46:10Z</time>
      </trkpt>
      <trkpt lat="48.58389" lon="7.43725">
        <ele>228.45</ele>
        <time>2017-04-16T07:46:11Z</time>
      </trkpt>
      <trkpt lat="48.58384" lon="7.43724">
        <ele>227.97</ele>
        <time>2017-04-16T07:46:12Z</time>
      </trkpt>
      <trkpt lat="48.5834" lon="7.43721">
        <ele>228.45</ele>
        <time>2017-04-16T07:46:21Z</time>
      </trkpt>
      <trkpt lat="48.5832" lon="7.43727">
        <ele>228.93</ele>
        <time>2017-04-16T07:46:26Z</time>
      </trkpt>
      <trkpt lat="48.58291" lon="7.43722">
        <ele>230.37</ele>
        <time>2017-04-16T07:46:33Z</time>
      </trkpt>
      <trkpt lat="48.58287" lon="7.43722">
        <ele>229.89</ele>
        <time>2017-04-16T07:46:34Z</time>
      </trkpt>
      <trkpt lat="48.58283" lon="7.43722">
        <ele>229.89</ele>
        <time>2017-04-16T07:46:35Z</time>
      </trkpt>
      <trkpt lat="48.58221" lon="7.43726">
        <ele>228.93</ele>
        <time>2017-04-16T07:46:48Z</time>
      </trkpt>
      <trkpt lat="48.58171" lon="7.43734">
        <ele>229.41</ele>
        <time>2017-04-16T07:46:57Z</time>
      </trkpt>
      <trkpt lat="48.58166" lon="7.43738">
        <ele>229.41</ele>
        <time>2017-04-16T07:46:58Z</time>
      </trkpt>
      <trkpt lat="48.58161" lon="7.43742">
        <ele>229.41</ele>
        <time>2017-04-16T07:46:59Z</time>
      </trkpt>
      <trkpt lat="48.58156" lon="7.43746">
        <ele>229.41</ele>
        <time>2017-04-16T07:47:00Z</time>
      </trkpt>
      <trkpt lat="48.58151" lon="7.43752">
        <ele>229.41</ele>
        <time>2017-04-16T07:47:01Z</time>
      </trkpt>
      <trkpt lat="48.58147" lon="7.43758">
        <ele>228.93</ele>
        <time>2017-04-16T07:47:02Z</time>
      </trkpt>
      <trkpt lat="48.58144" lon="7.43765">
        <ele>229.41</ele>
        <time>2017-04-16T07:47:03Z</time>
      </trkpt>
      <trkpt lat="48.58141" lon="7.43774">
        <ele>228.93</ele>
        <time>2017-04-16T07:47:04Z</time>
      </trkpt>
      <trkpt lat="48.58139" lon="7.43782">
        <ele>228.45</ele>
        <time>2017-04-16T07:47:05Z</time>
      </trkpt>
      <trkpt lat="48.58138" lon="7.43792">
        <ele>228.45</ele>
        <time>2017-04-16T07:47:06Z</time>
      </trkpt>
      <trkpt lat="48.58138" lon="7.43801">
        <ele>227.97</ele>
        <time>2017-04-16T07:47:07Z</time>
      </trkpt>
      <trkpt lat="48.58138" lon="7.43811">
        <ele>227.97</ele>
        <time>2017-04-16T07:47:08Z</time>
      </trkpt>
      <trkpt lat="48.58139" lon="7.43821">
        <ele>227.97</ele>
        <time>2017-04-16T07:47:09Z</time>
      </trkpt>
      <trkpt lat="48.5814" lon="7.43831">
        <ele>227.49</ele>
        <time>2017-04-16T07:47:10Z</time>
      </trkpt>
      <trkpt lat="48.58163" lon="7.43975">
        <ele>224.61</ele>
        <time>2017-04-16T07:47:24Z</time>
      </trkpt>
      <trkpt lat="48.58184" lon="7.44063">
        <ele>222.68</ele>
        <time>2017-04-16T07:47:33Z</time>
      </trkpt>
      <trkpt lat="48.58184" lon="7.44074">
        <ele>222.68</ele>
        <time>2017-04-16T07:47:34Z</time>
      </trkpt>
      <trkpt lat="48.58182" lon="7.44084">
        <ele>222.2</ele>
        <time>2017-04-16T07:47:35Z</time>
      </trkpt>
      <trkpt lat="48.58178" lon="7.44093">
        <ele>222.2</ele>
        <time>2017-04-16T07:47:36Z</time>
      </trkpt>
      <trkpt lat="48.58172" lon="7.441">
        <ele>222.2</ele>
        <time>2017-04-16T07:47:37Z</time>
      </trkpt>
      <trkpt lat="48.58166" lon="7.44104">
        <ele>222.2</ele>
        <time>2017-04-16T07:47:38Z</time>
      </trkpt>
      <trkpt lat="48.5816" lon="7.44107">
        <ele>222.2</ele>
        <time>2017-04-16T07:47:39Z</time>
      </trkpt>
      <trkpt lat="48.58099" lon="7.44136">
        <ele>222.68</ele>
        <time>2017-04-16T07:47:50Z</time>
      </trkpt>
      <trkpt lat="48.58091" lon="7.44145">
        <ele>223.16</ele>
        <time>2017-04-16T07:47:52Z</time>
      </trkpt>
      <trkpt lat="48.58087" lon="7.44151">
        <ele>223.16</ele>
        <time>2017-04-16T07:47:53Z</time>
      </trkpt>
      <trkpt lat="48.58084" lon="7.44157">
        <ele>223.16</ele>
        <time>2017-04-16T07:47:54Z</time>
      </trkpt>
      <trkpt lat="48.58081" lon="7.44163">
        <ele>223.16</ele>
        <time>2017-04-16T07:47:55Z</time>
      </trkpt>
      <trkpt lat="48.58079" lon="7.4417">
        <ele>223.16</ele>
        <time>2017-04-16T07:47:56Z</time>
      </trkpt>
      <trkpt lat="48.58077" lon="7.44178">
        <ele>223.64</ele>
        <time>2017-04-16T07:47:57Z</time>
      </trkpt>
      <trkpt lat="48.58075" lon="7.44185">
        <ele>223.64</ele>
        <time>2017-04-16T07:47:58Z</time>
      </trkpt>
      <trkpt lat="48.58074" lon="7.44193">
        <ele>223.64</ele>
        <time>2017-04-16T07:47:59Z</time>
      </trkpt>
      <trkpt lat="48.5806" lon="7.44302">
        <ele>227.01</ele>
        <time>2017-04-16T07:48:14Z</time>
      </trkpt>
      <trkpt lat="48.58032" lon="7.44426">
        <ele>227.97</ele>
        <time>2017-04-16T07:48:32Z</time>
      </trkpt>
      <trkpt lat="48.58029" lon="7.44432">
        <ele>227.97</ele>
        <time>2017-04-16T07:48:33Z</time>
      </trkpt>
      <trkpt lat="48.58027" lon="7.44439">
        <ele>227.97</ele>
        <time>2017-04-16T07:48:34Z</time>
      </trkpt>
      <trkpt lat="48.58025" lon="7.44445">
        <ele>227.97</ele>
        <time>2017-04-16T07:48:35Z</time>
      </trkpt>
      <trkpt lat="48.58023" lon="7.44452">
        <ele>229.89</ele>
        <time>2017-04-16T07:48:36Z</time>
      </trkpt>
      <trkpt lat="48.5802" lon="7.44458">
        <ele>229.89</ele>
        <time>2017-04-16T07:48:37Z</time>
      </trkpt>
      <trkpt lat="48.58017" lon="7.44464">
        <ele>230.37</ele>
        <time>2017-04-16T07:48:38Z</time>
      </trkpt>
      <trkpt lat="48.5797" lon="7.44563">
        <ele>229.41</ele>
        <time>2017-04-16T07:48:53Z</time>
      </trkpt>
      <trkpt lat="48.57943" lon="7.44631">
        <ele>226.05</ele>
        <time>2017-04-16T07:49:00Z</time>
      </trkpt>
      <trkpt lat="48.57939" lon="7.44642">
        <ele>225.57</ele>
        <time>2017-04-16T07:49:01Z</time>
      </trkpt>
      <trkpt lat="48.57926" lon="7.44691">
        <ele>223.16</ele>
        <time>2017-04-16T07:49:05Z</time>
      </trkpt>
      <trkpt lat="48.57923" lon="7.44719">
        <ele>222.2</ele>
        <time>2017-04-16T07:49:07Z</time>
      </trkpt>
      <trkpt lat="48.57914" lon="7.44781">
        <ele>219.32</ele>
        <time>2017-04-16T07:49:11Z</time>
      </trkpt>
      <trkpt lat="48.57912" lon="7.44796">
        <ele>218.84</ele>
        <time>2017-04-16T07:49:12Z</time>
      </trkpt>
      <trkpt lat="48.57896" lon="7.4486">
        <ele>215.47</ele>
        <time>2017-04-16T07:49:16Z</time>
      </trkpt>
      <trkpt lat="48.57891" lon="7.44876">
        <ele>214.51</ele>
        <time>2017-04-16T07:49:17Z</time>
      </trkpt>
      <trkpt lat="48.57884" lon="7.4489">
        <ele>213.07</ele>
        <time>2017-04-16T07:49:18Z</time>
      </trkpt>
      <trkpt lat="48.57876" lon="7.44904">
        <ele>213.07</ele>
        <time>2017-04-16T07:49:19Z</time>
      </trkpt>
      <trkpt lat="48.57868" lon="7.44917">
        <ele>213.07</ele>
        <time>2017-04-16T07:49:20Z</time>
      </trkpt>
      <trkpt lat="48.57726" lon="7.4514">
        <ele>203.94</ele>
        <time>2017-04-16T07:49:39Z</time>
      </trkpt>
      <trkpt lat="48.57642" lon="7.45252">
        <ele>202.01</ele>
        <time>2017-04-16T07:49:52Z</time>
      </trkpt>
      <trkpt lat="48.57632" lon="7.45263">
        <ele>202.01</ele>
        <time>2017-04-16T07:49:55Z</time>
      </trkpt>
      <trkpt lat="48.57629" lon="7.45269">
        <ele>202.49</ele>
        <time>2017-04-16T07:49:56Z</time>
      </trkpt>
      <trkpt lat="48.57628" lon="7.45275">
        <ele>202.01</ele>
        <time>2017-04-16T07:49:57Z</time>
      </trkpt>
      <trkpt lat="48.57614" lon="7.45356">
        <ele>201.53</ele>
        <time>2017-04-16T07:50:07Z</time>
      </trkpt>
      <trkpt lat="48.57612" lon="7.45365">
        <ele>202.01</ele>
        <time>2017-04-16T07:50:08Z</time>
      </trkpt>
      <trkpt lat="48.57595" lon="7.45455">
        <ele>201.05</ele>
        <time>2017-04-16T07:50:18Z</time>
      </trkpt>
      <trkpt lat="48.57594" lon="7.45463">
        <ele>201.05</ele>
        <time>2017-04-16T07:50:19Z</time>
      </trkpt>
      <trkpt lat="48.57595" lon="7.45473">
        <ele>201.05</ele>
        <time>2017-04-16T07:50:20Z</time>
      </trkpt>
      <trkpt lat="48.57612" lon="7.45625">
        <ele>199.13</ele>
        <time>2017-04-16T07:50:36Z</time>
      </trkpt>
      <trkpt lat="48.57612" lon="7.45635">
        <ele>199.61</ele>
        <time>2017-04-16T07:50:37Z</time>
      </trkpt>
      <trkpt lat="48.57611" lon="7.45644">
        <ele>199.13</ele>
        <time>2017-04-16T07:50:38Z</time>
      </trkpt>
      <trkpt lat="48.57601" lon="7.45712">
        <ele>197.69</ele>
        <time>2017-04-16T07:50:45Z</time>
      </trkpt>
      <trkpt lat="48.57583" lon="7.45792">
        <ele>196.25</ele>
        <time>2017-04-16T07:50:53Z</time>
      </trkpt>
      <trkpt lat="48.57585" lon="7.45857">
        <ele>195.28</ele>
        <time>2017-04-16T07:51:02Z</time>
      </trkpt>
      <trkpt lat="48.57588" lon="7.45859">
        <ele>195.28</ele>
        <time>2017-04-16T07:51:03Z</time>
      </trkpt>
      <trkpt lat="48.5759" lon="7.45861">
        <ele>195.28</ele>
        <time>2017-04-16T07:51:04Z</time>
      </trkpt>
      <trkpt lat="48.57594" lon="7.45862">
        <ele>195.28</ele>
        <time>2017-04-16T07:51:05Z</time>
      </trkpt>
      <trkpt lat="48.57598" lon="7.45862">
        <ele>195.28</ele>
        <time>2017-04-16T07:51:06Z</time>
      </trkpt>
      <trkpt lat="48.57602" lon="7.45863">
        <ele>196.25</ele>
        <time>2017-04-16T07:51:07Z</time>
      </trkpt>
      <trkpt lat="48.57606" lon="7.45864">
        <ele>195.77</ele>
        <time>2017-04-16T07:51:08Z</time>
      </trkpt>
      <trkpt lat="48.57609" lon="7.45865">
        <ele>195.77</ele>
        <time>2017-04-16T07:51:09Z</time>
      </trkpt>
      <trkpt lat="48.57647" lon="7.45872">
        <ele>195.28</ele>
        <time>2017-04-16T07:51:17Z</time>
      </trkpt>
      <trkpt lat="48.57659" lon="7.45876">
        <ele>194.32</ele>
        <time>2017-04-16T07:51:19Z</time>
      </trkpt>
      <trkpt lat="48.57667" lon="7.45881">
        <ele>193.84</ele>
        <time>2017-04-16T07:51:20Z</time>
      </trkpt>
      <trkpt lat="48.57673" lon="7.45888">
        <ele>193.84</ele>
        <time>2017-04-16T07:51:21Z</time>
      </trkpt>
      <trkpt lat="48.57679" lon="7.45896">
        <ele>193.36</ele>
        <time>2017-04-16T07:51:22Z</time>
      </trkpt>
      <trkpt lat="48.57685" lon="7.45903">
        <ele>192.88</ele>
        <time>2017-04-16T07:51:23Z</time>
      </trkpt>
      <trkpt lat="48.5769" lon="7.4591">
        <ele>192.88</ele>
        <time>2017-04-16T07:51:24Z</time>
      </trkpt>
      <trkpt lat="48.57696" lon="7.45917">
        <ele>192.88</ele>
        <time>2017-04-16T07:51:25Z</time>
      </trkpt>
      <trkpt lat="48.57702" lon="7.45924">
        <ele>192.88</ele>
        <time>2017-04-16T07:51:26Z</time>
      </trkpt>
      <trkpt lat="48.57708" lon="7.45929">
        <ele>192.4</ele>
        <time>2017-04-16T07:51:27Z</time>
      </trkpt>
      <trkpt lat="48.57714" lon="7.45933">
        <ele>192.4</ele>
        <time>2017-04-16T07:51:28Z</time>
      </trkpt>
      <trkpt lat="48.57728" lon="7.45943">
        <ele>192.4</ele>
        <time>2017-04-16T07:51:30Z</time>
      </trkpt>
      <trkpt lat="48.57734" lon="7.45949">
        <ele>192.4</ele>
        <time>2017-04-16T07:51:31Z</time>
      </trkpt>
      <trkpt lat="48.57738" lon="7.45957">
        <ele>191.92</ele>
        <time>2017-04-16T07:51:32Z</time>
      </trkpt>
      <trkpt lat="48.57741" lon="7.45965">
        <ele>192.4</ele>
        <time>2017-04-16T07:51:33Z</time>
      </trkpt>
      <trkpt lat="48.57744" lon="7.45975">
        <ele>191.92</ele>
        <time>2017-04-16T07:51:34Z</time>
      </trkpt>
      <trkpt lat="48.57745" lon="7.45984">
        <ele>191.92</ele>
        <time>2017-04-16T07:51:35Z</time>
      </trkpt>
      <trkpt lat="48.57762" lon="7.46049">
        <ele>192.88</ele>
        <time>2017-04-16T07:51:43Z</time>
      </trkpt>
      <trkpt lat="48.57764" lon="7.46054">
        <ele>192.88</ele>
        <time>2017-04-16T07:51:44Z</time>
      </trkpt>
      <trkpt lat="48.57769" lon="7.46071">
        <ele>192.88</ele>
        <time>2017-04-16T07:51:47Z</time>
      </trkpt>
      <trkpt lat="48.57771" lon="7.46077">
        <ele>193.36</ele>
        <time>2017-04-16T07:51:48Z</time>
      </trkpt>
      <trkpt lat="48.57771" lon="7.46083">
        <ele>193.36</ele>
        <time>2017-04-16T07:51:49Z</time>
      </trkpt>
      <trkpt lat="48.5777" lon="7.46091">
        <ele>193.36</ele>
        <time>2017-04-16T07:51:50Z</time>
      </trkpt>
      <trkpt lat="48.5777" lon="7.46098">
        <ele>193.36</ele>
        <time>2017-04-16T07:51:51Z</time>
      </trkpt>
      <trkpt lat="48.57781" lon="7.46154">
        <ele>194.8</ele>
        <time>2017-04-16T07:51:59Z</time>
      </trkpt>
      <trkpt lat="48.57785" lon="7.46216">
        <ele>195.77</ele>
        <time>2017-04-16T07:52:09Z</time>
      </trkpt>
      <trkpt lat="48.57783" lon="7.46222">
        <ele>195.77</ele>
        <time>2017-04-16T07:52:10Z</time>
      </trkpt>
      <trkpt lat="48.57779" lon="7.46229">
        <ele>194.8</ele>
        <time>2017-04-16T07:52:11Z</time>
      </trkpt>
      <trkpt lat="48.57774" lon="7.46234">
        <ele>194.8</ele>
        <time>2017-04-16T07:52:12Z</time>
      </trkpt>
      <trkpt lat="48.57769" lon="7.46239">
        <ele>193.84</ele>
        <time>2017-04-16T07:52:13Z</time>
      </trkpt>
      <trkpt lat="48.57727" lon="7.46283">
        <ele>190.96</ele>
        <time>2017-04-16T07:52:20Z</time>
      </trkpt>
      <trkpt lat="48.57722" lon="7.46292">
        <ele>190.48</ele>
        <time>2017-04-16T07:52:21Z</time>
      </trkpt>
      <trkpt lat="48.57698" lon="7.46351">
        <ele>190</ele>
        <time>2017-04-16T07:52:27Z</time>
      </trkpt>
      <trkpt lat="48.57696" lon="7.46361">
        <ele>190</ele>
        <time>2017-04-16T07:52:28Z</time>
      </trkpt>
      <trkpt lat="48.57696" lon="7.46371">
        <ele>189.52</ele>
        <time>2017-04-16T07:52:29Z</time>
      </trkpt>
      <trkpt lat="48.57696" lon="7.46381">
        <ele>189.52</ele>
        <time>2017-04-16T07:52:30Z</time>
      </trkpt>
      <trkpt lat="48.57727" lon="7.46864">
        <ele>192.88</ele>
        <time>2017-04-16T07:53:25Z</time>
      </trkpt>
      <trkpt lat="48.57727" lon="7.46871">
        <ele>192.88</ele>
        <time>2017-04-16T07:53:26Z</time>
      </trkpt>
      <trkpt lat="48.57726" lon="7.46877">
        <ele>192.4</ele>
        <time>2017-04-16T07:53:27Z</time>
      </trkpt>
      <trkpt lat="48.57723" lon="7.46882">
        <ele>192.4</ele>
        <time>2017-04-16T07:53:28Z</time>
      </trkpt>
      <trkpt lat="48.5772" lon="7.46886">
        <ele>192.4</ele>
        <time>2017-04-16T07:53:29Z</time>
      </trkpt>
      <trkpt lat="48.57715" lon="7.46888">
        <ele>191.92</ele>
        <time>2017-04-16T07:53:30Z</time>
      </trkpt>
      <trkpt lat="48.5771" lon="7.46888">
        <ele>191.44</ele>
        <time>2017-04-16T07:53:31Z</time>
      </trkpt>
      <trkpt lat="48.57664" lon="7.46894">
        <ele>188.08</ele>
        <time>2017-04-16T07:53:38Z</time>
      </trkpt>
      <trkpt lat="48.57657" lon="7.46895">
        <ele>187.59</ele>
        <time>2017-04-16T07:53:39Z</time>
      </trkpt>
      <trkpt lat="48.57644" lon="7.46897">
        <ele>186.63</ele>
        <time>2017-04-16T07:53:41Z</time>
      </trkpt>
      <trkpt lat="48.57617" lon="7.46904">
        <ele>185.19</ele>
        <time>2017-04-16T07:53:46Z</time>
      </trkpt>
      <trkpt lat="48.57614" lon="7.46909">
        <ele>185.19</ele>
        <time>2017-04-16T07:53:47Z</time>
      </trkpt>
      <trkpt lat="48.57613" lon="7.46915">
        <ele>184.71</ele>
        <time>2017-04-16T07:53:48Z</time>
      </trkpt>
      <trkpt lat="48.57614" lon="7.46922">
        <ele>184.71</ele>
        <time>2017-04-16T07:53:49Z</time>
      </trkpt>
      <trkpt lat="48.57615" lon="7.46929">
        <ele>185.19</ele>
        <time>2017-04-16T07:53:50Z</time>
      </trkpt>
      <trkpt lat="48.57616" lon="7.46935">
        <ele>184.71</ele>
        <time>2017-04-16T07:53:51Z</time>
      </trkpt>
      <trkpt lat="48.57673" lon="7.47307">
        <ele>184.23</ele>
        <time>2017-04-16T07:54:31Z</time>
      </trkpt>
      <trkpt lat="48.57676" lon="7.47314">
        <ele>184.23</ele>
        <time>2017-04-16T07:54:32Z</time>
      </trkpt>
      <trkpt lat="48.5769" lon="7.47352">
        <ele>184.23</ele>
        <time>2017-04-16T07:54:38Z</time>
      </trkpt>
      <trkpt lat="48.57692" lon="7.47359">
        <ele>184.23</ele>
        <time>2017-04-16T07:54:39Z</time>
      </trkpt>
      <trkpt lat="48.57693" lon="7.47366">
        <ele>184.23</ele>
        <time>2017-04-16T07:54:40Z</time>
      </trkpt>
      <trkpt lat="48.57694" lon="7.47374">
        <ele>183.75</ele>
        <time>2017-04-16T07:54:41Z</time>
      </trkpt>
      <trkpt lat="48.57694" lon="7.47381">
        <ele>183.75</ele>
        <time>2017-04-16T07:54:42Z</time>
      </trkpt>
      <trkpt lat="48.57693" lon="7.47389">
        <ele>183.75</ele>
        <time>2017-04-16T07:54:43Z</time>
      </trkpt>
      <trkpt lat="48.57692" lon="7.47397">
        <ele>183.75</ele>
        <time>2017-04-16T07:54:44Z</time>
      </trkpt>
      <trkpt lat="48.57686" lon="7.47457">
        <ele>182.31</ele>
        <time>2017-04-16T07:54:51Z</time>
      </trkpt>
      <trkpt lat="48.57686" lon="7.47466">
        <ele>181.83</ele>
        <time>2017-04-16T07:54:52Z</time>
      </trkpt>
      <trkpt lat="48.57692" lon="7.47558">
        <ele>180.87</ele>
        <time>2017-04-16T07:55:03Z</time>
      </trkpt>
      <trkpt lat="48.57691" lon="7.47566">
        <ele>181.35</ele>
        <time>2017-04-16T07:55:04Z</time>
      </trkpt>
      <trkpt lat="48.57688" lon="7.47582">
        <ele>180.87</ele>
        <time>2017-04-16T07:55:06Z</time>
      </trkpt>
      <trkpt lat="48.57687" lon="7.4759">
        <ele>180.87</ele>
        <time>2017-04-16T07:55:07Z</time>
      </trkpt>
      <trkpt lat="48.57688" lon="7.47599">
        <ele>180.87</ele>
        <time>2017-04-16T07:55:08Z</time>
      </trkpt>
      <trkpt lat="48.57689" lon="7.47607">
        <ele>181.35</ele>
        <time>2017-04-16T07:55:09Z</time>
      </trkpt>
      <trkpt lat="48.57692" lon="7.47616">
        <ele>181.35</ele>
        <time>2017-04-16T07:55:10Z</time>
      </trkpt>
      <trkpt lat="48.57694" lon="7.47625">
        <ele>181.35</ele>
        <time>2017-04-16T07:55:11Z</time>
      </trkpt>
      <trkpt lat="48.57714" lon="7.47686">
        <ele>181.83</ele>
        <time>2017-04-16T07:55:19Z</time>
      </trkpt>
      <trkpt lat="48.57721" lon="7.47717">
        <ele>181.83</ele>
        <time>2017-04-16T07:55:23Z</time>
      </trkpt>
      <trkpt lat="48.57721" lon="7.47726">
        <ele>181.35</ele>
        <time>2017-04-16T07:55:24Z</time>
      </trkpt>
      <trkpt lat="48.57722" lon="7.47734">
        <ele>181.35</ele>
        <time>2017-04-16T07:55:25Z</time>
      </trkpt>
      <trkpt lat="48.57723" lon="7.47742">
        <ele>181.35</ele>
        <time>2017-04-16T07:55:26Z</time>
      </trkpt>
      <trkpt lat="48.57724" lon="7.4775">
        <ele>181.35</ele>
        <time>2017-04-16T07:55:27Z</time>
      </trkpt>
      <trkpt lat="48.57725" lon="7.47758">
        <ele>181.35</ele>
        <time>2017-04-16T07:55:28Z</time>
      </trkpt>
      <trkpt lat="48.57725" lon="7.47766">
        <ele>181.35</ele>
        <time>2017-04-16T07:55:29Z</time>
      </trkpt>
      <trkpt lat="48.57722" lon="7.47773">
        <ele>181.35</ele>
        <time>2017-04-16T07:55:30Z</time>
      </trkpt>
      <trkpt lat="48.57718" lon="7.47777">
        <ele>181.35</ele>
        <time>2017-04-16T07:55:31Z</time>
      </trkpt>
      <trkpt lat="48.57713" lon="7.4778">
        <ele>181.35</ele>
        <time>2017-04-16T07:55:32Z</time>
      </trkpt>
      <trkpt lat="48.57708" lon="7.47782">
        <ele>180.87</ele>
        <time>2017-04-16T07:55:33Z</time>
      </trkpt>
      <trkpt lat="48.57666" lon="7.47797">
        <ele>180.87</ele>
        <time>2017-04-16T07:55:41Z</time>
      </trkpt>
      <trkpt lat="48.57661" lon="7.47797">
        <ele>180.87</ele>
        <time>2017-04-16T07:55:42Z</time>
      </trkpt>
      <trkpt lat="48.57656" lon="7.47795">
        <ele>180.87</ele>
        <time>2017-04-16T07:55:43Z</time>
      </trkpt>
      <trkpt lat="48.57652" lon="7.47792">
        <ele>180.87</ele>
        <time>2017-04-16T07:55:44Z</time>
      </trkpt>
      <trkpt lat="48.57644" lon="7.47783">
        <ele>181.35</ele>
        <time>2017-04-16T07:55:46Z</time>
      </trkpt>
      <trkpt lat="48.5764" lon="7.47779">
        <ele>180.87</ele>
        <time>2017-04-16T07:55:47Z</time>
      </trkpt>
      <trkpt lat="48.57632" lon="7.47778">
        <ele>181.35</ele>
        <time>2017-04-16T07:55:49Z</time>
      </trkpt>
      <trkpt lat="48.57625" lon="7.47784">
        <ele>181.35</ele>
        <time>2017-04-16T07:55:51Z</time>
      </trkpt>
      <trkpt lat="48.57623" lon="7.47788">
        <ele>181.35</ele>
        <time>2017-04-16T07:55:52Z</time>
      </trkpt>
      <trkpt lat="48.57619" lon="7.47799">
        <ele>180.87</ele>
        <time>2017-04-16T07:55:54Z</time>
      </trkpt>
      <trkpt lat="48.57614" lon="7.4781">
        <ele>181.35</ele>
        <time>2017-04-16T07:55:56Z</time>
      </trkpt>
      <trkpt lat="48.5761" lon="7.47815">
        <ele>181.35</ele>
        <time>2017-04-16T07:55:57Z</time>
      </trkpt>
      <trkpt lat="48.57606" lon="7.47818">
        <ele>181.83</ele>
        <time>2017-04-16T07:55:58Z</time>
      </trkpt>
      <trkpt lat="48.57603" lon="7.47821">
        <ele>181.35</ele>
        <time>2017-04-16T07:55:59Z</time>
      </trkpt>
      <trkpt lat="48.57595" lon="7.4783">
        <ele>181.35</ele>
        <time>2017-04-16T07:56:01Z</time>
      </trkpt>
      <trkpt lat="48.57592" lon="7.47845">
        <ele>181.35</ele>
        <time>2017-04-16T07:56:03Z</time>
      </trkpt>
      <trkpt lat="48.57593" lon="7.47854">
        <ele>181.35</ele>
        <time>2017-04-16T07:56:04Z</time>
      </trkpt>
      <trkpt lat="48.57594" lon="7.47862">
        <ele>181.35</ele>
        <time>2017-04-16T07:56:05Z</time>
      </trkpt>
      <trkpt lat="48.57612" lon="7.47871">
        <ele>173.78515625</ele>
      </trkpt>
      <trkpt lat="48.57622" lon="7.47861">
        <ele>173.69140625</ele>
      </trkpt>
      <trkpt lat="48.57632" lon="7.47848">
        <ele>173.52734375</ele>
      </trkpt>
      <trkpt lat="48.5764" lon="7.47846">
        <ele>173.32421875</ele>
      </trkpt>
      <trkpt lat="48.57652" lon="7.47868">
        <ele>173</ele>
      </trkpt>
      <trkpt lat="48.57673" lon="7.47893">
        <ele>173</ele>
      </trkpt>
      <trkpt lat="48.57727" lon="7.47978">
        <ele>173.0703125</ele>
      </trkpt>
      <trkpt lat="48.57739" lon="7.48011">
        <ele>173</ele>
      </trkpt>
      <trkpt lat="48.5778" lon="7.48305">
        <ele>170.69140625</ele>
      </trkpt>
      <trkpt lat="48.57779" lon="7.48316">
        <ele>170.69921875</ele>
      </trkpt>
      <trkpt lat="48.57773" lon="7.48326">
        <ele>170.75390625</ele>
      </trkpt>
      <trkpt lat="48.5767" lon="7.48376">
        <ele>170.015625</ele>
      </trkpt>
      <trkpt lat="48.57667" lon="7.48377">
        <ele>170.00390625</ele>
      </trkpt>
      <trkpt lat="48.57625" lon="7.48391">
        <ele>170.4921875</ele>
      </trkpt>
      <trkpt lat="48.57608" lon="7.48401">
        <ele>170.5390625</ele>
      </trkpt>
      <trkpt lat="48.57605" lon="7.48404">
        <ele>170.51171875</ele>
      </trkpt>
      <trkpt lat="48.57591" lon="7.48412">
        <ele>170.4921875</ele>
      </trkpt>
      <trkpt lat="48.57574" lon="7.48428">
        <ele>170.51953125</ele>
      </trkpt>
      <trkpt lat="48.57574" lon="7.48444">
        <ele>170.4375</ele>
      </trkpt>
      <trkpt lat="48.5758" lon="7.48483">
        <ele>170.67578125</ele>
      </trkpt>
      <trkpt lat="48.5762" lon="7.48543">
        <ele>171.40625</ele>
      </trkpt>
      <trkpt lat="48.57638" lon="7.48569">
        <ele>173.3203125</ele>
      </trkpt>
      <trkpt lat="48.57641" lon="7.4858">
        <ele>174.15234375</ele>
      </trkpt>
      <trkpt lat="48.57639" lon="7.48586">
        <ele>174.4765625</ele>
      </trkpt>
      <trkpt lat="48.57618" lon="7.48604">
        <ele>174.5390625</ele>
      </trkpt>
      <trkpt lat="48.57592" lon="7.48627">
        <ele>174.3125</ele>
      </trkpt>
      <trkpt lat="48.57584" lon="7.48634">
        <ele>174.16796875</ele>
      </trkpt>
      <trkpt lat="48.57561" lon="7.48663">
        <ele>174.0859375</ele>
      </trkpt>
      <trkpt lat="48.57501" lon="7.48735">
        <ele>174.19140625</ele>
      </trkpt>
      <trkpt lat="48.57432" lon="7.48835">
        <ele>172.60546875</ele>
      </trkpt>
      <trkpt lat="48.57364" lon="7.48922">
        <ele>173.80078125</ele>
      </trkpt>
      <trkpt lat="48.57337" lon="7.48946">
        <ele>173.15234375</ele>
      </trkpt>
      <trkpt lat="48.57334" lon="7.48953">
        <ele>178.94</ele>
        <time>2017-04-16T07:58:43Z</time>
      </trkpt>
      <trkpt lat="48.57334" lon="7.48963">
        <ele>178.46</ele>
        <time>2017-04-16T08:15:41Z</time>
      </trkpt>
      <trkpt lat="48.57333" lon="7.48987">
        <ele>178.46</ele>
        <time>2017-04-16T08:15:40Z</time>
      </trkpt>
      <trkpt lat="48.57258" lon="7.49093">
        <ele>178.94</ele>
        <time>2017-04-16T08:15:21Z</time>
      </trkpt>
      <trkpt lat="48.57085" lon="7.49319">
        <ele>178.46</ele>
        <time>2017-04-16T08:14:41Z</time>
      </trkpt>
      <trkpt lat="48.57054" lon="7.49385">
        <ele>177.5</ele>
        <time>2017-04-16T08:14:30Z</time>
      </trkpt>
      <trkpt lat="48.56993" lon="7.49456">
        <ele>176.54</ele>
        <time>2017-04-16T08:14:16Z</time>
      </trkpt>
      <trkpt lat="48.56988" lon="7.49461">
        <ele>176.54</ele>
        <time>2017-04-16T08:14:15Z</time>
      </trkpt>
      <trkpt lat="48.56911" lon="7.4952">
        <ele>178.46</ele>
        <time>2017-04-16T08:14:01Z</time>
      </trkpt>
      <trkpt lat="48.5684" lon="7.49572">
        <ele>179.42</ele>
        <time>2017-04-16T08:13:46Z</time>
      </trkpt>
      <trkpt lat="48.56814" lon="7.49591">
        <ele>177.98</ele>
        <time>2017-04-16T08:13:40Z</time>
      </trkpt>
      <trkpt lat="48.56781" lon="7.49618">
        <ele>177.02</ele>
        <time>2017-04-16T08:13:33Z</time>
      </trkpt>
      <trkpt lat="48.56777" lon="7.49623">
        <ele>177.02</ele>
        <time>2017-04-16T08:13:32Z</time>
      </trkpt>
      <trkpt lat="48.56773" lon="7.49629">
        <ele>177.02</ele>
        <time>2017-04-16T08:13:31Z</time>
      </trkpt>
      <trkpt lat="48.5672" lon="7.49705">
        <ele>177.02</ele>
        <time>2017-04-16T08:13:17Z</time>
      </trkpt>
      <trkpt lat="48.5668" lon="7.49803">
        <ele>174.62</ele>
        <time>2017-04-16T08:13:03Z</time>
      </trkpt>
      <trkpt lat="48.56673" lon="7.4984">
        <ele>174.62</ele>
        <time>2017-04-16T08:12:59Z</time>
      </trkpt>
      <trkpt lat="48.56668" lon="7.499">
        <ele>174.62</ele>
        <time>2017-04-16T08:12:53Z</time>
      </trkpt>
      <trkpt lat="48.5667" lon="7.50005">
        <ele>174.14</ele>
        <time>2017-04-16T08:12:42Z</time>
      </trkpt>
      <trkpt lat="48.56674" lon="7.50041">
        <ele>174.14</ele>
        <time>2017-04-16T08:12:38Z</time>
      </trkpt>
      <trkpt lat="48.56676" lon="7.5005">
        <ele>174.14</ele>
        <time>2017-04-16T08:12:37Z</time>
      </trkpt>
      <trkpt lat="48.56709" lon="7.50151">
        <ele>173.66</ele>
        <time>2017-04-16T08:12:25Z</time>
      </trkpt>
      <trkpt lat="48.5672" lon="7.50174">
        <ele>173.17</ele>
        <time>2017-04-16T08:12:22Z</time>
      </trkpt>
      <trkpt lat="48.56738" lon="7.50234">
        <ele>173.17</ele>
        <time>2017-04-16T08:12:15Z</time>
      </trkpt>
      <trkpt lat="48.56763" lon="7.5035">
        <ele>173.17</ele>
        <time>2017-04-16T08:12:03Z</time>
      </trkpt>
      <trkpt lat="48.56766" lon="7.50391">
        <ele>173.17</ele>
        <time>2017-04-16T08:11:59Z</time>
      </trkpt>
      <trkpt lat="48.56767" lon="7.50422">
        <ele>173.17</ele>
        <time>2017-04-16T08:11:56Z</time>
      </trkpt>
      <trkpt lat="48.56766" lon="7.50464">
        <ele>168.1796875</ele>
      </trkpt>
      <trkpt lat="48.56773" lon="7.50464">
        <ele>168.55859375</ele>
      </trkpt>
      <trkpt lat="48.56795" lon="7.50463">
        <ele>169.70703125</ele>
      </trkpt>
      <trkpt lat="48.56797" lon="7.50484">
        <ele>169.85546875</ele>
      </trkpt>
      <trkpt lat="48.56801" lon="7.50533">
        <ele>170.04296875</ele>
      </trkpt>
      <trkpt lat="48.56807" lon="7.50579">
        <ele>169.85546875</ele>
      </trkpt>
      <trkpt lat="48.56819" lon="7.5063">
        <ele>170.015625</ele>
      </trkpt>
      <trkpt lat="48.56832" lon="7.5067">
        <ele>170.48046875</ele>
      </trkpt>
      <trkpt lat="48.56846" lon="7.50664">
        <ele>171.00390625</ele>
      </trkpt>
      <trkpt lat="48.56896" lon="7.50651">
        <ele>172.8125</ele>
      </trkpt>
      <trkpt lat="48.56918" lon="7.50648">
        <ele>173.59765625</ele>
      </trkpt>
      <trkpt lat="48.56926" lon="7.50647">
        <ele>173.8671875</ele>
      </trkpt>
      <trkpt lat="48.56952" lon="7.50692">
        <ele>175.50390625</ele>
      </trkpt>
      <trkpt lat="48.56978" lon="7.50663">
        <ele>175.92578125</ele>
      </trkpt>
      <trkpt lat="48.57016" lon="7.50649">
        <ele>177.05859375</ele>
      </trkpt>
      <trkpt lat="48.57064" lon="7.50633">
        <ele>178.60546875</ele>
      </trkpt>
      <trkpt lat="48.57146" lon="7.50588">
        <ele>182.765625</ele>
      </trkpt>
      <trkpt lat="48.57153" lon="7.50729">
        <ele>186.8984375</ele>
      </trkpt>
      <trkpt lat="48.57152" lon="7.50826">
        <ele>191.43359375</ele>
      </trkpt>
      <trkpt lat="48.57153" lon="7.50897">
        <ele>196.625</ele>
      </trkpt>
      <trkpt lat="48.57178" lon="7.51056">
        <ele>205.46484375</ele>
      </trkpt>
      <trkpt lat="48.57187" lon="7.51099">
        <ele>205.65625</ele>
      </trkpt>
      <trkpt lat="48.57223" lon="7.5112">
        <ele>214.99</ele>
        <time>2017-04-16T08:09:32Z</time>
      </trkpt>
      <trkpt lat="48.57265" lon="7.5113">
        <ele>214.99</ele>
        <time>2017-04-16T08:09:31Z</time>
      </trkpt>
      <trkpt lat="48.57344" lon="7.51113">
        <ele>213.83984375</ele>
      </trkpt>
      <trkpt lat="48.57408" lon="7.51071">
        <ele>219.921875</ele>
      </trkpt>
      <trkpt lat="48.57409" lon="7.51042">
        <ele>221.609375</ele>
      </trkpt>
      <trkpt lat="48.57366" lon="7.50836">
        <ele>230.50390625</ele>
      </trkpt>
      <trkpt lat="48.57412" lon="7.51039">
        <ele>222.0078125</ele>
      </trkpt>
      <trkpt lat="48.57411" lon="7.5107">
        <ele>220.21875</ele>
      </trkpt>
      <trkpt lat="48.57345" lon="7.51117">
        <ele>213.7734375</ele>
      </trkpt>
      <trkpt lat="48.57336" lon="7.5112">
        <ele>213.1796875</ele>
      </trkpt>
      <trkpt lat="48.57328" lon="7.51141">
        <ele>217.4</ele>
        <time>2017-04-16T08:08:41Z</time>
      </trkpt>
      <trkpt lat="48.57303" lon="7.51192">
        <ele>214.51</ele>
        <time>2017-04-16T08:08:26Z</time>
      </trkpt>
      <trkpt lat="48.57273" lon="7.51235">
        <ele>211.15</ele>
        <time>2017-04-16T08:08:11Z</time>
      </trkpt>
      <trkpt lat="48.5724" lon="7.51277">
        <ele>208.26</ele>
        <time>2017-04-16T08:07:55Z</time>
      </trkpt>
      <trkpt lat="48.57212" lon="7.5131">
        <ele>204.9</ele>
        <time>2017-04-16T08:07:41Z</time>
      </trkpt>
      <trkpt lat="48.57188" lon="7.51341">
        <ele>202.01</ele>
        <time>2017-04-16T08:07:28Z</time>
      </trkpt>
      <trkpt lat="48.57163" lon="7.51371">
        <ele>199.61</ele>
        <time>2017-04-16T08:07:14Z</time>
      </trkpt>
      <trkpt lat="48.5715" lon="7.51386">
        <ele>197.21</ele>
        <time>2017-04-16T08:07:07Z</time>
      </trkpt>
      <trkpt lat="48.57123" lon="7.51413">
        <ele>194.8</ele>
        <time>2017-04-16T08:06:54Z</time>
      </trkpt>
      <trkpt lat="48.56958" lon="7.51481">
        <ele>179.42</ele>
        <time>2017-04-16T08:05:46Z</time>
      </trkpt>
      <trkpt lat="48.56925" lon="7.51493">
        <ele>176.06</ele>
        <time>2017-04-16T08:05:34Z</time>
      </trkpt>
      <trkpt lat="48.56921" lon="7.51494">
        <ele>176.06</ele>
        <time>2017-04-16T08:05:33Z</time>
      </trkpt>
      <trkpt lat="48.56919" lon="7.51496">
        <ele>176.06</ele>
        <time>2017-04-16T08:05:32Z</time>
      </trkpt>
      <trkpt lat="48.56916" lon="7.51497">
        <ele>175.58</ele>
        <time>2017-04-16T08:05:31Z</time>
      </trkpt>
      <trkpt lat="48.56913" lon="7.51498">
        <ele>175.58</ele>
        <time>2017-04-16T08:05:30Z</time>
      </trkpt>
      <trkpt lat="48.5691" lon="7.51499">
        <ele>175.58</ele>
        <time>2017-04-16T08:05:29Z</time>
      </trkpt>
      <trkpt lat="48.56908" lon="7.51499">
        <ele>175.1</ele>
        <time>2017-04-16T08:05:28Z</time>
      </trkpt>
      <trkpt lat="48.56905" lon="7.51499">
        <ele>175.1</ele>
        <time>2017-04-16T08:05:27Z</time>
      </trkpt>
      <trkpt lat="48.56901" lon="7.51498">
        <ele>174.62</ele>
        <time>2017-04-16T08:05:26Z</time>
      </trkpt>
      <trkpt lat="48.56897" lon="7.51497">
        <ele>174.62</ele>
        <time>2017-04-16T08:05:25Z</time>
      </trkpt>
      <trkpt lat="48.56894" lon="7.51494">
        <ele>174.14</ele>
        <time>2017-04-16T08:05:24Z</time>
      </trkpt>
      <trkpt lat="48.56891" lon="7.5149">
        <ele>174.62</ele>
        <time>2017-04-16T08:05:23Z</time>
      </trkpt>
      <trkpt lat="48.56877" lon="7.5146">
        <ele>173.66</ele>
        <time>2017-04-16T08:05:18Z</time>
      </trkpt>
      <trkpt lat="48.56874" lon="7.51454">
        <ele>173.66</ele>
        <time>2017-04-16T08:05:17Z</time>
      </trkpt>
      <trkpt lat="48.56872" lon="7.51449">
        <ele>173.66</ele>
        <time>2017-04-16T08:05:16Z</time>
      </trkpt>
      <trkpt lat="48.56869" lon="7.51444">
        <ele>173.17</ele>
        <time>2017-04-16T08:05:15Z</time>
      </trkpt>
      <trkpt lat="48.56865" lon="7.5144">
        <ele>173.17</ele>
        <time>2017-04-16T08:05:14Z</time>
      </trkpt>
      <trkpt lat="48.56861" lon="7.51437">
        <ele>172.69</ele>
        <time>2017-04-16T08:05:13Z</time>
      </trkpt>
      <trkpt lat="48.5682" lon="7.5143">
        <ele>171.73</ele>
        <time>2017-04-16T08:05:05Z</time>
      </trkpt>
      <trkpt lat="48.56764" lon="7.51425">
        <ele>171.73</ele>
        <time>2017-04-16T08:04:56Z</time>
      </trkpt>
      <trkpt lat="48.56685" lon="7.51425">
        <ele>173.66</ele>
        <time>2017-04-16T08:04:43Z</time>
      </trkpt>
      <trkpt lat="48.5668" lon="7.51426">
        <ele>174.14</ele>
        <time>2017-04-16T08:04:42Z</time>
      </trkpt>
      <trkpt lat="48.56676" lon="7.51426">
        <ele>174.14</ele>
        <time>2017-04-16T08:04:41Z</time>
      </trkpt>
      <trkpt lat="48.56672" lon="7.51426">
        <ele>174.14</ele>
        <time>2017-04-16T08:04:40Z</time>
      </trkpt>
      <trkpt lat="48.56669" lon="7.51425">
        <ele>174.62</ele>
        <time>2017-04-16T08:04:39Z</time>
      </trkpt>
      <trkpt lat="48.56665" lon="7.51423">
        <ele>174.14</ele>
        <time>2017-04-16T08:04:38Z</time>
      </trkpt>
      <trkpt lat="48.56645" lon="7.5135">
        <ele>172.21</ele>
        <time>2017-04-16T08:04:26Z</time>
      </trkpt>
      <trkpt lat="48.5662" lon="7.51213">
        <ele>172.69</ele>
        <time>2017-04-16T08:04:11Z</time>
      </trkpt>
      <trkpt lat="48.56607" lon="7.51121">
        <ele>172.69</ele>
        <time>2017-04-16T08:04:00Z</time>
      </trkpt>
      <trkpt lat="48.56606" lon="7.51113">
        <ele>172.69</ele>
        <time>2017-04-16T08:03:59Z</time>
      </trkpt>
      <trkpt lat="48.56605" lon="7.51104">
        <ele>172.69</ele>
        <time>2017-04-16T08:03:58Z</time>
      </trkpt>
      <trkpt lat="48.56605" lon="7.51096">
        <ele>172.69</ele>
        <time>2017-04-16T08:03:57Z</time>
      </trkpt>
      <trkpt lat="48.56606" lon="7.51087">
        <ele>172.69</ele>
        <time>2017-04-16T08:03:56Z</time>
      </trkpt>
      <trkpt lat="48.56608" lon="7.51078">
        <ele>172.69</ele>
        <time>2017-04-16T08:03:55Z</time>
      </trkpt>
      <trkpt lat="48.56611" lon="7.5107">
        <ele>172.69</ele>
        <time>2017-04-16T08:03:54Z</time>
      </trkpt>
      <trkpt lat="48.56615" lon="7.51063">
        <ele>172.69</ele>
        <time>2017-04-16T08:03:53Z</time>
      </trkpt>
      <trkpt lat="48.56619" lon="7.51056">
        <ele>172.21</ele>
        <time>2017-04-16T08:03:52Z</time>
      </trkpt>
      <trkpt lat="48.56624" lon="7.5105">
        <ele>172.69</ele>
        <time>2017-04-16T08:03:51Z</time>
      </trkpt>
      <trkpt lat="48.56703" lon="7.50964">
        <ele>173.17</ele>
        <time>2017-04-16T08:03:37Z</time>
      </trkpt>
      <trkpt lat="48.56719" lon="7.50944">
        <ele>173.17</ele>
        <time>2017-04-16T08:03:34Z</time>
      </trkpt>
      <trkpt lat="48.56724" lon="7.50936">
        <ele>173.17</ele>
        <time>2017-04-16T08:03:33Z</time>
      </trkpt>
      <trkpt lat="48.56731" lon="7.50917">
        <ele>173.66</ele>
        <time>2017-04-16T08:03:31Z</time>
      </trkpt>
      <trkpt lat="48.56733" lon="7.50907">
        <ele>173.66</ele>
        <time>2017-04-16T08:03:30Z</time>
      </trkpt>
      <trkpt lat="48.56734" lon="7.50829">
        <ele>173.66</ele>
        <time>2017-04-16T08:03:23Z</time>
      </trkpt>
      <trkpt lat="48.56709" lon="7.50546">
        <ele>173.17</ele>
        <time>2017-04-16T08:02:57Z</time>
      </trkpt>
      <trkpt lat="48.56701" lon="7.50427">
        <ele>173.66</ele>
        <time>2017-04-16T08:02:46Z</time>
      </trkpt>
      <trkpt lat="48.56666" lon="7.50298">
        <ele>173.66</ele>
        <time>2017-04-16T08:02:33Z</time>
      </trkpt>
      <trkpt lat="48.56663" lon="7.50288">
        <ele>173.66</ele>
        <time>2017-04-16T08:02:32Z</time>
      </trkpt>
      <trkpt lat="48.56661" lon="7.50278">
        <ele>173.66</ele>
        <time>2017-04-16T08:02:31Z</time>
      </trkpt>
      <trkpt lat="48.56651" lon="7.50205">
        <ele>173.66</ele>
        <time>2017-04-16T08:02:24Z</time>
      </trkpt>
      <trkpt lat="48.56621" lon="7.50104">
        <ele>173.66</ele>
        <time>2017-04-16T08:02:13Z</time>
      </trkpt>
      <trkpt lat="48.56609" lon="7.49979">
        <ele>175.1</ele>
        <time>2017-04-16T08:02:00Z</time>
      </trkpt>
      <trkpt lat="48.56609" lon="7.49972">
        <ele>175.1</ele>
        <time>2017-04-16T08:01:59Z</time>
      </trkpt>
      <trkpt lat="48.56609" lon="7.49964">
        <ele>175.58</ele>
        <time>2017-04-16T08:01:58Z</time>
      </trkpt>
      <trkpt lat="48.56628" lon="7.49863">
        <ele>175.1</ele>
        <time>2017-04-16T08:01:46Z</time>
      </trkpt>
      <trkpt lat="48.56661" lon="7.49736">
        <ele>175.1</ele>
        <time>2017-04-16T08:01:32Z</time>
      </trkpt>
      <trkpt lat="48.56706" lon="7.49635">
        <ele>175.1</ele>
        <time>2017-04-16T08:01:18Z</time>
      </trkpt>
      <trkpt lat="48.56797" lon="7.49527">
        <ele>176.06</ele>
        <time>2017-04-16T08:01:01Z</time>
      </trkpt>
      <trkpt lat="48.56871" lon="7.49456">
        <ele>176.54</ele>
        <time>2017-04-16T08:00:46Z</time>
      </trkpt>
      <trkpt lat="48.56876" lon="7.49452">
        <ele>176.54</ele>
        <time>2017-04-16T08:00:45Z</time>
      </trkpt>
      <trkpt lat="48.56881" lon="7.49447">
        <ele>177.02</ele>
        <time>2017-04-16T08:00:44Z</time>
      </trkpt>
      <trkpt lat="48.56886" lon="7.49441">
        <ele>177.02</ele>
        <time>2017-04-16T08:00:43Z</time>
      </trkpt>
      <trkpt lat="48.5689" lon="7.49435">
        <ele>176.54</ele>
        <time>2017-04-16T08:00:42Z</time>
      </trkpt>
      <trkpt lat="48.56894" lon="7.49428">
        <ele>176.54</ele>
        <time>2017-04-16T08:00:41Z</time>
      </trkpt>
      <trkpt lat="48.56911" lon="7.49383">
        <ele>177.98</ele>
        <time>2017-04-16T08:00:35Z</time>
      </trkpt>
      <trkpt lat="48.56938" lon="7.49311">
        <ele>176.06</ele>
        <time>2017-04-16T08:00:25Z</time>
      </trkpt>
      <trkpt lat="48.56941" lon="7.49302">
        <ele>176.06</ele>
        <time>2017-04-16T08:00:24Z</time>
      </trkpt>
      <trkpt lat="48.56944" lon="7.49294">
        <ele>176.06</ele>
        <time>2017-04-16T08:00:23Z</time>
      </trkpt>
      <trkpt lat="48.56946" lon="7.49285">
        <ele>176.06</ele>
        <time>2017-04-16T08:00:22Z</time>
      </trkpt>
      <trkpt lat="48.56946" lon="7.49277">
        <ele>176.54</ele>
        <time>2017-04-16T08:00:21Z</time>
      </trkpt>
      <trkpt lat="48.56944" lon="7.49269">
        <ele>177.02</ele>
        <time>2017-04-16T08:00:20Z</time>
      </trkpt>
      <trkpt lat="48.56941" lon="7.49261">
        <ele>177.02</ele>
        <time>2017-04-16T08:00:19Z</time>
      </trkpt>
      <trkpt lat="48.56938" lon="7.49254">
        <ele>177.02</ele>
        <time>2017-04-16T08:00:18Z</time>
      </trkpt>
      <trkpt lat="48.56935" lon="7.49248">
        <ele>177.02</ele>
        <time>2017-04-16T08:00:17Z</time>
      </trkpt>
      <trkpt lat="48.56931" lon="7.49242">
        <ele>177.5</ele>
        <time>2017-04-16T08:00:16Z</time>
      </trkpt>
      <trkpt lat="48.56926" lon="7.49239">
        <ele>177.5</ele>
        <time>2017-04-16T08:00:15Z</time>
      </trkpt>
      <trkpt lat="48.56922" lon="7.49237">
        <ele>177.5</ele>
        <time>2017-04-16T08:00:14Z</time>
      </trkpt>
      <trkpt lat="48.56918" lon="7.49238">
        <ele>177.5</ele>
        <time>2017-04-16T08:00:13Z</time>
      </trkpt>
      <trkpt lat="48.56914" lon="7.49242">
        <ele>177.5</ele>
        <time>2017-04-16T08:00:12Z</time>
      </trkpt>
      <trkpt lat="48.5691" lon="7.49245">
        <ele>177.5</ele>
        <time>2017-04-16T08:00:11Z</time>
      </trkpt>
      <trkpt lat="48.56906" lon="7.49247">
        <ele>177.5</ele>
        <time>2017-04-16T08:00:10Z</time>
      </trkpt>
      <trkpt lat="48.56901" lon="7.49246">
        <ele>177.5</ele>
        <time>2017-04-16T08:00:09Z</time>
      </trkpt>
      <trkpt lat="48.56894" lon="7.49236">
        <ele>177.5</ele>
        <time>2017-04-16T08:00:07Z</time>
      </trkpt>
      <trkpt lat="48.56892" lon="7.49231">
        <ele>177.5</ele>
        <time>2017-04-16T08:00:06Z</time>
      </trkpt>
      <trkpt lat="48.5689" lon="7.49225">
        <ele>177.5</ele>
        <time>2017-04-16T08:00:05Z</time>
      </trkpt>
      <trkpt lat="48.56888" lon="7.49219">
        <ele>177.98</ele>
        <time>2017-04-16T08:00:04Z</time>
      </trkpt>
      <trkpt lat="48.56888" lon="7.49215">
        <ele>177.5</ele>
        <time>2017-04-16T08:00:03Z</time>
      </trkpt>
      <trkpt lat="48.56943" lon="7.49168">
        <ele>177.5</ele>
        <time>2017-04-16T07:59:50Z</time>
      </trkpt>
      <trkpt lat="48.56948" lon="7.49164">
        <ele>177.5</ele>
        <time>2017-04-16T07:59:49Z</time>
      </trkpt>
      <trkpt lat="48.56976" lon="7.49148">
        <ele>177.5</ele>
        <time>2017-04-16T07:59:44Z</time>
      </trkpt>
      <trkpt lat="48.57314" lon="7.48977">
        <ele>178.46</ele>
        <time>2017-04-16T07:58:48Z</time>
      </trkpt>
      <trkpt lat="48.57323" lon="7.48969">
        <ele>178.46</ele>
        <time>2017-04-16T07:58:46Z</time>
      </trkpt>
      <trkpt lat="48.57328" lon="7.48965">
        <ele>178.94</ele>
        <time>2017-04-16T07:58:45Z</time>
      </trkpt>
      <trkpt lat="48.57332" lon="7.4896">
        <ele>178.94</ele>
        <time>2017-04-16T07:58:44Z</time>
      </trkpt>
      <trkpt lat="48.57339" lon="7.48953">
        <ele>177.98</ele>
        <time>2017-04-16T08:15:45Z</time>
      </trkpt>
      <trkpt lat="48.57357" lon="7.48936">
        <ele>177.5</ele>
        <time>2017-04-16T08:15:51Z</time>
      </trkpt>
      <trkpt lat="48.57361" lon="7.48932">
        <ele>177.5</ele>
        <time>2017-04-16T08:15:52Z</time>
      </trkpt>
      <trkpt lat="48.57365" lon="7.48928">
        <ele>177.5</ele>
        <time>2017-04-16T08:15:53Z</time>
      </trkpt>
      <trkpt lat="48.57432" lon="7.48845">
        <ele>177.5</ele>
        <time>2017-04-16T08:16:08Z</time>
      </trkpt>
      <trkpt lat="48.57505" lon="7.48741">
        <ele>177.98</ele>
        <time>2017-04-16T08:16:25Z</time>
      </trkpt>
      <trkpt lat="48.57584" lon="7.48638">
        <ele>178.46</ele>
        <time>2017-04-16T08:16:43Z</time>
      </trkpt>
      <trkpt lat="48.5766" lon="7.48572">
        <ele>177.98</ele>
        <time>2017-04-16T08:16:58Z</time>
      </trkpt>
      <trkpt lat="48.57752" lon="7.48511">
        <ele>178.46</ele>
        <time>2017-04-16T08:17:15Z</time>
      </trkpt>
      <trkpt lat="48.57833" lon="7.48457">
        <ele>178.46</ele>
        <time>2017-04-16T08:17:30Z</time>
      </trkpt>
      <trkpt lat="48.57921" lon="7.48397">
        <ele>178.46</ele>
        <time>2017-04-16T08:17:47Z</time>
      </trkpt>
      <trkpt lat="48.5801" lon="7.48336">
        <ele>178.94</ele>
        <time>2017-04-16T08:18:05Z</time>
      </trkpt>
      <trkpt lat="48.58064" lon="7.48296">
        <ele>178.94</ele>
        <time>2017-04-16T08:18:18Z</time>
      </trkpt>
      <trkpt lat="48.58067" lon="7.48293">
        <ele>178.94</ele>
        <time>2017-04-16T08:18:19Z</time>
      </trkpt>
      <trkpt lat="48.58071" lon="7.48291">
        <ele>179.42</ele>
        <time>2017-04-16T08:18:20Z</time>
      </trkpt>
      <trkpt lat="48.58075" lon="7.48288">
        <ele>178.94</ele>
        <time>2017-04-16T08:18:21Z</time>
      </trkpt>
      <trkpt lat="48.58079" lon="7.48286">
        <ele>178.94</ele>
        <time>2017-04-16T08:18:22Z</time>
      </trkpt>
      <trkpt lat="48.58084" lon="7.48284">
        <ele>178.94</ele>
        <time>2017-04-16T08:18:23Z</time>
      </trkpt>
      <trkpt lat="48.58162" lon="7.48236">
        <ele>178.46</ele>
        <time>2017-04-16T08:18:38Z</time>
      </trkpt>
      <trkpt lat="48.58202" lon="7.48216">
        <ele>178.94</ele>
        <time>2017-04-16T08:18:45Z</time>
      </trkpt>
      <trkpt lat="48.58307" lon="7.48189">
        <ele>178.46</ele>
        <time>2017-04-16T08:19:03Z</time>
      </trkpt>
      <trkpt lat="48.58397" lon="7.48197">
        <ele>177.98</ele>
        <time>2017-04-16T08:19:19Z</time>
      </trkpt>
      <trkpt lat="48.585" lon="7.48246">
        <ele>178.46</ele>
        <time>2017-04-16T08:19:38Z</time>
      </trkpt>
      <trkpt lat="48.58577" lon="7.48302">
        <ele>178.46</ele>
        <time>2017-04-16T08:19:53Z</time>
      </trkpt>
      <trkpt lat="48.58681" lon="7.48385">
        <ele>178.94</ele>
        <time>2017-04-16T08:20:14Z</time>
      </trkpt>
      <trkpt lat="48.58763" lon="7.48447">
        <ele>179.42</ele>
        <time>2017-04-16T08:20:30Z</time>
      </trkpt>
      <trkpt lat="48.58869" lon="7.48527">
        <ele>180.38</ele>
        <time>2017-04-16T08:20:50Z</time>
      </trkpt>
      <trkpt lat="48.58955" lon="7.48588">
        <ele>180.38</ele>
        <time>2017-04-16T08:21:07Z</time>
      </trkpt>
      <trkpt lat="48.59016" lon="7.48629">
        <ele>180.87</ele>
        <time>2017-04-16T08:21:19Z</time>
      </trkpt>
      <trkpt lat="48.59083" lon="7.48679">
        <ele>181.35</ele>
        <time>2017-04-16T08:21:32Z</time>
      </trkpt>
      <trkpt lat="48.59087" lon="7.48683">
        <ele>181.35</ele>
        <time>2017-04-16T08:21:33Z</time>
      </trkpt>
      <trkpt lat="48.59092" lon="7.48687">
        <ele>181.83</ele>
        <time>2017-04-16T08:21:34Z</time>
      </trkpt>
      <trkpt lat="48.59138" lon="7.48718">
        <ele>181.83</ele>
        <time>2017-04-16T08:21:45Z</time>
      </trkpt>
      <trkpt lat="48.59141" lon="7.48715">
        <ele>181.35</ele>
        <time>2017-04-16T08:21:46Z</time>
      </trkpt>
      <trkpt lat="48.59143" lon="7.48709">
        <ele>180.38</ele>
        <time>2017-04-16T08:21:47Z</time>
      </trkpt>
      <trkpt lat="48.59145" lon="7.48702">
        <ele>180.38</ele>
        <time>2017-04-16T08:21:48Z</time>
      </trkpt>
      <trkpt lat="48.59162" lon="7.48649">
        <ele>179.42</ele>
        <time>2017-04-16T08:21:55Z</time>
      </trkpt>
      <trkpt lat="48.59163" lon="7.4864">
        <ele>179.42</ele>
        <time>2017-04-16T08:21:56Z</time>
      </trkpt>
      <trkpt lat="48.59174" lon="7.48522">
        <ele>178.94</ele>
        <time>2017-04-16T08:22:10Z</time>
      </trkpt>
      <trkpt lat="48.59198" lon="7.4842">
        <ele>179.9</ele>
        <time>2017-04-16T08:22:23Z</time>
      </trkpt>
      <trkpt lat="48.59225" lon="7.48319">
        <ele>181.83</ele>
        <time>2017-04-16T08:22:40Z</time>
      </trkpt>
      <trkpt lat="48.59241" lon="7.48232">
        <ele>182.79</ele>
        <time>2017-04-16T08:22:54Z</time>
      </trkpt>
      <trkpt lat="48.59257" lon="7.48126">
        <ele>184.23</ele>
        <time>2017-04-16T08:23:11Z</time>
      </trkpt>
      <trkpt lat="48.59291" lon="7.47913">
        <ele>192.4</ele>
        <time>2017-04-16T08:23:53Z</time>
      </trkpt>
      <trkpt lat="48.59313" lon="7.47865">
        <ele>195.77</ele>
        <time>2017-04-16T08:24:05Z</time>
      </trkpt>
      <trkpt lat="48.59309" lon="7.47807">
        <ele>197.21</ele>
        <time>2017-04-16T08:24:16Z</time>
      </trkpt>
      <trkpt lat="48.5932" lon="7.47724">
        <ele>200.09</ele>
        <time>2017-04-16T08:24:33Z</time>
      </trkpt>
      <trkpt lat="48.59328" lon="7.47674">
        <ele>202.49</ele>
        <time>2017-04-16T08:24:45Z</time>
      </trkpt>
      <trkpt lat="48.59329" lon="7.47543">
        <ele>207.78</ele>
        <time>2017-04-16T08:25:11Z</time>
      </trkpt>
      <trkpt lat="48.59329" lon="7.47462">
        <ele>211.15</ele>
        <time>2017-04-16T08:25:25Z</time>
      </trkpt>
      <trkpt lat="48.59333" lon="7.47378">
        <ele>213.07</ele>
        <time>2017-04-16T08:25:41Z</time>
      </trkpt>
      <trkpt lat="48.59347" lon="7.4729">
        <ele>214.03</ele>
        <time>2017-04-16T08:25:57Z</time>
      </trkpt>
      <trkpt lat="48.59374" lon="7.47213">
        <ele>212.59</ele>
        <time>2017-04-16T08:26:11Z</time>
      </trkpt>
      <trkpt lat="48.59407" lon="7.47136">
        <ele>210.67</ele>
        <time>2017-04-16T08:26:24Z</time>
      </trkpt>
      <trkpt lat="48.59411" lon="7.47134">
        <ele>210.67</ele>
        <time>2017-04-16T08:26:25Z</time>
      </trkpt>
      <trkpt lat="48.59415" lon="7.47134">
        <ele>210.67</ele>
        <time>2017-04-16T08:26:26Z</time>
      </trkpt>
      <trkpt lat="48.59418" lon="7.47139">
        <ele>210.19</ele>
        <time>2017-04-16T08:26:27Z</time>
      </trkpt>
      <trkpt lat="48.59419" lon="7.47144">
        <ele>210.19</ele>
        <time>2017-04-16T08:26:28Z</time>
      </trkpt>
      <trkpt lat="48.59419" lon="7.47163">
        <ele>210.19</ele>
        <time>2017-04-16T08:26:31Z</time>
      </trkpt>
      <trkpt lat="48.59415" lon="7.47281">
        <ele>211.15</ele>
        <time>2017-04-16T08:26:46Z</time>
      </trkpt>
      <trkpt lat="48.5943" lon="7.47378">
        <ele>211.63</ele>
        <time>2017-04-16T08:26:59Z</time>
      </trkpt>
      <trkpt lat="48.59467" lon="7.47513">
        <ele>209.7</ele>
        <time>2017-04-16T08:27:17Z</time>
      </trkpt>
      <trkpt lat="48.59477" lon="7.47543">
        <ele>208.74</ele>
        <time>2017-04-16T08:27:26Z</time>
      </trkpt>
      <trkpt lat="48.59476" lon="7.47543">
        <ele>208.74</ele>
        <time>2017-04-16T08:27:31Z</time>
      </trkpt>
      <trkpt lat="48.59493" lon="7.47593">
        <ele>207.3</ele>
        <time>2017-04-16T08:32:29Z</time>
      </trkpt>
      <trkpt lat="48.59522" lon="7.47689">
        <ele>205.86</ele>
        <time>2017-04-16T08:32:44Z</time>
      </trkpt>
      <trkpt lat="48.59553" lon="7.47837">
        <ele>202.49</ele>
        <time>2017-04-16T08:33:03Z</time>
      </trkpt>
      <trkpt lat="48.59563" lon="7.47885">
        <ele>200.57</ele>
        <time>2017-04-16T08:33:09Z</time>
      </trkpt>
      <trkpt lat="48.59566" lon="7.47891">
        <ele>200.09</ele>
        <time>2017-04-16T08:33:10Z</time>
      </trkpt>
      <trkpt lat="48.5957" lon="7.47896">
        <ele>200.09</ele>
        <time>2017-04-16T08:33:11Z</time>
      </trkpt>
      <trkpt lat="48.59574" lon="7.479">
        <ele>199.61</ele>
        <time>2017-04-16T08:33:12Z</time>
      </trkpt>
      <trkpt lat="48.59587" lon="7.47908">
        <ele>199.13</ele>
        <time>2017-04-16T08:33:15Z</time>
      </trkpt>
      <trkpt lat="48.5965" lon="7.47941">
        <ele>195.28</ele>
        <time>2017-04-16T08:33:28Z</time>
      </trkpt>
      <trkpt lat="48.59854" lon="7.48062">
        <ele>184.71</ele>
        <time>2017-04-16T08:34:10Z</time>
      </trkpt>
      <trkpt lat="48.59858" lon="7.48063">
        <ele>185.19</ele>
        <time>2017-04-16T08:34:11Z</time>
      </trkpt>
      <trkpt lat="48.599" lon="7.48064">
        <ele>185.67</ele>
        <time>2017-04-16T08:34:23Z</time>
      </trkpt>
      <trkpt lat="48.59937" lon="7.48079">
        <ele>187.59</ele>
        <time>2017-04-16T08:34:36Z</time>
      </trkpt>
      <trkpt lat="48.59949" lon="7.48098">
        <ele>187.59</ele>
        <time>2017-04-16T08:34:44Z</time>
      </trkpt>
      <trkpt lat="48.5995" lon="7.48112">
        <ele>187.59</ele>
        <time>2017-04-16T08:34:47Z</time>
      </trkpt>
      <trkpt lat="48.59937" lon="7.48136">
        <ele>187.59</ele>
        <time>2017-04-16T08:34:53Z</time>
      </trkpt>
      <trkpt lat="48.59936" lon="7.48141">
        <ele>187.11</ele>
        <time>2017-04-16T08:34:54Z</time>
      </trkpt>
      <trkpt lat="48.59936" lon="7.48147">
        <ele>187.11</ele>
        <time>2017-04-16T08:34:55Z</time>
      </trkpt>
      <trkpt lat="48.59936" lon="7.48154">
        <ele>187.11</ele>
        <time>2017-04-16T08:34:56Z</time>
      </trkpt>
      <trkpt lat="48.5994" lon="7.48187">
        <ele>187.11</ele>
        <time>2017-04-16T08:35:02Z</time>
      </trkpt>
      <trkpt lat="48.59938" lon="7.4819">
        <ele>186.63</ele>
        <time>2017-04-16T08:35:03Z</time>
      </trkpt>
      <trkpt lat="48.59935" lon="7.48192">
        <ele>187.11</ele>
        <time>2017-04-16T08:35:04Z</time>
      </trkpt>
      <trkpt lat="48.59933" lon="7.48195">
        <ele>186.63</ele>
        <time>2017-04-16T08:35:05Z</time>
      </trkpt>
      <trkpt lat="48.59932" lon="7.48199">
        <ele>187.11</ele>
        <time>2017-04-16T08:35:06Z</time>
      </trkpt>
      <trkpt lat="48.59932" lon="7.48204">
        <ele>187.11</ele>
        <time>2017-04-16T08:35:07Z</time>
      </trkpt>
      <trkpt lat="48.59933" lon="7.48208">
        <ele>187.11</ele>
        <time>2017-04-16T08:35:08Z</time>
      </trkpt>
      <trkpt lat="48.59935" lon="7.48213">
        <ele>187.59</ele>
        <time>2017-04-16T08:35:09Z</time>
      </trkpt>
      <trkpt lat="48.60053" lon="7.48488">
        <ele>192.4</ele>
        <time>2017-04-16T08:36:04Z</time>
      </trkpt>
      <trkpt lat="48.60109" lon="7.48616">
        <ele>192.88</ele>
        <time>2017-04-16T08:38:37Z</time>
      </trkpt>
      <trkpt lat="48.60111" lon="7.48623">
        <ele>193.36</ele>
        <time>2017-04-16T08:38:38Z</time>
      </trkpt>
      <trkpt lat="48.60114" lon="7.48722">
        <ele>186.1328125</ele>
      </trkpt>
      <trkpt lat="48.60103" lon="7.48845">
        <ele>182.609375</ele>
      </trkpt>
      <trkpt lat="48.60092" lon="7.48894">
        <ele>180.3125</ele>
      </trkpt>
      <trkpt lat="48.60099" lon="7.48939">
        <ele>179.125</ele>
      </trkpt>
      <trkpt lat="48.60154" lon="7.49019">
        <ele>179.09375</ele>
      </trkpt>
      <trkpt lat="48.60173" lon="7.49079">
        <ele>177.97265625</ele>
      </trkpt>
      <trkpt lat="48.60491" lon="7.49247">
        <ele>182.34375</ele>
      </trkpt>
      <trkpt lat="48.60537" lon="7.49266">
        <ele>182</ele>
      </trkpt>
      <trkpt lat="48.6055" lon="7.4919">
        <ele>183.15234375</ele>
      </trkpt>
      <trkpt lat="48.60597" lon="7.49208">
        <ele>183.1484375</ele>
      </trkpt>
      <trkpt lat="48.6061" lon="7.49124">
        <ele>185</ele>
      </trkpt>
      <trkpt lat="48.60622" lon="7.49056">
        <ele>185.78125</ele>
      </trkpt>
      <trkpt lat="48.60757" lon="7.49173">
        <ele>183.73046875</ele>
      </trkpt>
      <trkpt lat="48.60773" lon="7.49353">
        <ele>182.3359375</ele>
      </trkpt>
      <trkpt lat="48.60778" lon="7.49368">
        <ele>189.52</ele>
        <time>2017-04-16T09:13:01Z</time>
      </trkpt>
      <trkpt lat="48.6078" lon="7.4937">
        <ele>189.52</ele>
        <time>2017-04-16T09:13:02Z</time>
      </trkpt>
      <trkpt lat="48.60783" lon="7.49371">
        <ele>189.52</ele>
        <time>2017-04-16T09:13:03Z</time>
      </trkpt>
      <trkpt lat="48.60817" lon="7.49359">
        <ele>189.52</ele>
        <time>2017-04-16T09:13:14Z</time>
      </trkpt>
      <trkpt lat="48.61506" lon="7.49183">
        <ele>189.04</ele>
        <time>2017-04-16T09:15:51Z</time>
      </trkpt>
      <trkpt lat="48.61653" lon="7.49142">
        <ele>189.52</ele>
        <time>2017-04-16T09:16:22Z</time>
      </trkpt>
      <trkpt lat="48.61723" lon="7.49099">
        <ele>189.52</ele>
        <time>2017-04-16T09:16:38Z</time>
      </trkpt>
      <trkpt lat="48.61738" lon="7.49084">
        <ele>189.52</ele>
        <time>2017-04-16T09:16:43Z</time>
      </trkpt>
      <trkpt lat="48.61741" lon="7.49079">
        <ele>189.04</ele>
        <time>2017-04-16T09:16:44Z</time>
      </trkpt>
      <trkpt lat="48.61743" lon="7.49073">
        <ele>189.52</ele>
        <time>2017-04-16T09:16:45Z</time>
      </trkpt>
      <trkpt lat="48.61744" lon="7.49068">
        <ele>189.52</ele>
        <time>2017-04-16T09:16:46Z</time>
      </trkpt>
      <trkpt lat="48.61745" lon="7.49063">
        <ele>189.52</ele>
        <time>2017-04-16T09:16:47Z</time>
      </trkpt>
      <trkpt lat="48.61752" lon="7.49051">
        <ele>189.04</ele>
        <time>2017-04-16T09:16:50Z</time>
      </trkpt>
      <trkpt lat="48.61756" lon="7.49051">
        <ele>189.04</ele>
        <time>2017-04-16T09:16:51Z</time>
      </trkpt>
      <trkpt lat="48.6176" lon="7.49052">
        <ele>189.04</ele>
        <time>2017-04-16T09:16:52Z</time>
      </trkpt>
      <trkpt lat="48.61797" lon="7.49071">
        <ele>189.04</ele>
        <time>2017-04-16T09:17:01Z</time>
      </trkpt>
      <trkpt lat="48.6187" lon="7.49083">
        <ele>190.48</ele>
        <time>2017-04-16T09:17:18Z</time>
      </trkpt>
      <trkpt lat="48.61911" lon="7.49073">
        <ele>191.44</ele>
        <time>2017-04-16T09:17:33Z</time>
      </trkpt>
    </trkseg>
  </trk>
</gpx>